<?xml version="1.0" encoding="UTF-8" standalone="no" ?>
<gpx xmlns="http://www.topografix.com/GPX/1/1" xmlns:xsi="http://www.w3.org/2001/XMLSchema-instance" xsi:schemaLocation="http://www.topografix.com/GPX/1/1 http://www.topografix.com/GPX/1/1/gpx.xsd" version="1.1" creator="VisuGPX - https://www.visugpx.com">
  <metadata>
    <name>20180501_Trail-Montfaucon_10km</name>
    <desc><![CDATA[Trail solidaire de Montfaucon, 4eme édition]]></desc>
  </metadata>
  <trk>
    <name><![CDATA[2018-05-01-10-02-09 on GPSies.com]]></name>
    <trkseg>
      <trkpt lat="47.23522" lon="6.07747">
        <ele>506</ele>
        <time>2018-05-01T10:02:09Z</time>
      </trkpt>
      <trkpt lat="47.23522" lon="6.07747">
        <ele>506</ele>
        <time>2018-05-01T10:02:10Z</time>
      </trkpt>
      <trkpt lat="47.23525" lon="6.07748">
        <ele>506</ele>
        <time>2018-05-01T10:02:22Z</time>
      </trkpt>
      <trkpt lat="47.23531" lon="6.0775">
        <ele>506</ele>
        <time>2018-05-01T10:02:28Z</time>
      </trkpt>
      <trkpt lat="47.23532" lon="6.0775">
        <ele>506</ele>
        <time>2018-05-01T10:02:30Z</time>
      </trkpt>
      <trkpt lat="47.23534" lon="6.07751">
        <ele>506</ele>
        <time>2018-05-01T10:02:30Z</time>
      </trkpt>
      <trkpt lat="47.23539" lon="6.07755">
        <ele>506</ele>
        <time>2018-05-01T10:02:33Z</time>
      </trkpt>
      <trkpt lat="47.23541" lon="6.07756">
        <ele>506</ele>
        <time>2018-05-01T10:02:34Z</time>
      </trkpt>
      <trkpt lat="47.2355" lon="6.07756">
        <ele>506</ele>
        <time>2018-05-01T10:02:39Z</time>
      </trkpt>
      <trkpt lat="47.23554" lon="6.07754">
        <ele>506</ele>
        <time>2018-05-01T10:02:41Z</time>
      </trkpt>
      <trkpt lat="47.23557" lon="6.07754">
        <ele>506</ele>
        <time>2018-05-01T10:02:42Z</time>
      </trkpt>
      <trkpt lat="47.23562" lon="6.07751">
        <ele>506</ele>
        <time>2018-05-01T10:02:44Z</time>
      </trkpt>
      <trkpt lat="47.23566" lon="6.07749">
        <ele>506</ele>
        <time>2018-05-01T10:02:45Z</time>
      </trkpt>
      <trkpt lat="47.23569" lon="6.07747">
        <ele>506</ele>
        <time>2018-05-01T10:02:46Z</time>
      </trkpt>
      <trkpt lat="47.23572" lon="6.07745">
        <ele>506</ele>
        <time>2018-05-01T10:02:47Z</time>
      </trkpt>
      <trkpt lat="47.23575" lon="6.07744">
        <ele>506</ele>
        <time>2018-05-01T10:02:48Z</time>
      </trkpt>
      <trkpt lat="47.23589" lon="6.07733">
        <ele>506</ele>
        <time>2018-05-01T10:02:54Z</time>
      </trkpt>
      <trkpt lat="47.23596" lon="6.07726">
        <ele>505</ele>
        <time>2018-05-01T10:02:56Z</time>
      </trkpt>
      <trkpt lat="47.236" lon="6.07721">
        <ele>505</ele>
        <time>2018-05-01T10:02:58Z</time>
      </trkpt>
      <trkpt lat="47.23605" lon="6.07717">
        <ele>505</ele>
        <time>2018-05-01T10:03:00Z</time>
      </trkpt>
      <trkpt lat="47.23607" lon="6.07715">
        <ele>504</ele>
        <time>2018-05-01T10:03:01Z</time>
      </trkpt>
      <trkpt lat="47.23614" lon="6.07707">
        <ele>504</ele>
        <time>2018-05-01T10:03:06Z</time>
      </trkpt>
      <trkpt lat="47.23615" lon="6.07706">
        <ele>504</ele>
        <time>2018-05-01T10:03:07Z</time>
      </trkpt>
      <trkpt lat="47.23615" lon="6.07705">
        <ele>504</ele>
        <time>2018-05-01T10:03:08Z</time>
      </trkpt>
      <trkpt lat="47.23616" lon="6.07702">
        <ele>504</ele>
        <time>2018-05-01T10:03:10Z</time>
      </trkpt>
      <trkpt lat="47.23616" lon="6.07702">
        <ele>504</ele>
        <time>2018-05-01T10:03:10Z</time>
      </trkpt>
      <trkpt lat="47.23616" lon="6.07698">
        <ele>504</ele>
        <time>2018-05-01T10:03:11Z</time>
      </trkpt>
      <trkpt lat="47.23616" lon="6.07684">
        <ele>503</ele>
        <time>2018-05-01T10:03:15Z</time>
      </trkpt>
      <trkpt lat="47.23618" lon="6.07676">
        <ele>502</ele>
        <time>2018-05-01T10:03:19Z</time>
      </trkpt>
      <trkpt lat="47.23626" lon="6.07666">
        <ele>502</ele>
        <time>2018-05-01T10:03:24Z</time>
      </trkpt>
      <trkpt lat="47.23633" lon="6.07658">
        <ele>502</ele>
        <time>2018-05-01T10:03:27Z</time>
      </trkpt>
      <trkpt lat="47.23639" lon="6.07644">
        <ele>502</ele>
        <time>2018-05-01T10:03:32Z</time>
      </trkpt>
      <trkpt lat="47.23647" lon="6.07629">
        <ele>502</ele>
        <time>2018-05-01T10:03:37Z</time>
      </trkpt>
      <trkpt lat="47.23653" lon="6.07621">
        <ele>502</ele>
        <time>2018-05-01T10:03:40Z</time>
      </trkpt>
      <trkpt lat="47.23665" lon="6.07605">
        <ele>502</ele>
        <time>2018-05-01T10:03:46Z</time>
      </trkpt>
      <trkpt lat="47.23666" lon="6.07603">
        <ele>502</ele>
        <time>2018-05-01T10:03:47Z</time>
      </trkpt>
      <trkpt lat="47.23679" lon="6.07585">
        <ele>502</ele>
        <time>2018-05-01T10:03:53Z</time>
      </trkpt>
      <trkpt lat="47.23689" lon="6.07577">
        <ele>503</ele>
        <time>2018-05-01T10:03:58Z</time>
      </trkpt>
      <trkpt lat="47.23696" lon="6.07573">
        <ele>503</ele>
        <time>2018-05-01T10:04:00Z</time>
      </trkpt>
      <trkpt lat="47.23698" lon="6.07572">
        <ele>503</ele>
        <time>2018-05-01T10:04:01Z</time>
      </trkpt>
      <trkpt lat="47.23712" lon="6.07572">
        <ele>503</ele>
        <time>2018-05-01T10:04:06Z</time>
      </trkpt>
      <trkpt lat="47.23713" lon="6.07575">
        <ele>503</ele>
        <time>2018-05-01T10:04:07Z</time>
      </trkpt>
      <trkpt lat="47.23722" lon="6.07591">
        <ele>503</ele>
        <time>2018-05-01T10:04:13Z</time>
      </trkpt>
      <trkpt lat="47.23725" lon="6.07598">
        <ele>503</ele>
        <time>2018-05-01T10:04:16Z</time>
      </trkpt>
      <trkpt lat="47.23733" lon="6.07616">
        <ele>504</ele>
        <time>2018-05-01T10:04:22Z</time>
      </trkpt>
      <trkpt lat="47.23741" lon="6.07625">
        <ele>504</ele>
        <time>2018-05-01T10:04:26Z</time>
      </trkpt>
      <trkpt lat="47.23755" lon="6.07636">
        <ele>505</ele>
        <time>2018-05-01T10:04:33Z</time>
      </trkpt>
      <trkpt lat="47.23765" lon="6.07642">
        <ele>506</ele>
        <time>2018-05-01T10:04:38Z</time>
      </trkpt>
      <trkpt lat="47.23776" lon="6.07647">
        <ele>508</ele>
        <time>2018-05-01T10:04:43Z</time>
      </trkpt>
      <trkpt lat="47.23785" lon="6.07652">
        <ele>509</ele>
        <time>2018-05-01T10:04:48Z</time>
      </trkpt>
      <trkpt lat="47.23792" lon="6.07651">
        <ele>510</ele>
        <time>2018-05-01T10:04:52Z</time>
      </trkpt>
      <trkpt lat="47.23803" lon="6.07657">
        <ele>511</ele>
        <time>2018-05-01T10:04:57Z</time>
      </trkpt>
      <trkpt lat="47.23818" lon="6.07675">
        <ele>512</ele>
        <time>2018-05-01T10:05:03Z</time>
      </trkpt>
      <trkpt lat="47.23823" lon="6.07692">
        <ele>513</ele>
        <time>2018-05-01T10:05:07Z</time>
      </trkpt>
      <trkpt lat="47.2383" lon="6.07713">
        <ele>514</ele>
        <time>2018-05-01T10:05:12Z</time>
      </trkpt>
      <trkpt lat="47.2384" lon="6.07734">
        <ele>515</ele>
        <time>2018-05-01T10:05:17Z</time>
      </trkpt>
      <trkpt lat="47.23842" lon="6.07738">
        <ele>515</ele>
        <time>2018-05-01T10:05:18Z</time>
      </trkpt>
      <trkpt lat="47.23846" lon="6.07745">
        <ele>515</ele>
        <time>2018-05-01T10:05:20Z</time>
      </trkpt>
      <trkpt lat="47.23867" lon="6.07759">
        <ele>516</ele>
        <time>2018-05-01T10:05:27Z</time>
      </trkpt>
      <trkpt lat="47.23882" lon="6.0777">
        <ele>516</ele>
        <time>2018-05-01T10:05:32Z</time>
      </trkpt>
      <trkpt lat="47.23897" lon="6.07779">
        <ele>516</ele>
        <time>2018-05-01T10:05:37Z</time>
      </trkpt>
      <trkpt lat="47.23915" lon="6.07789">
        <ele>516</ele>
        <time>2018-05-01T10:05:42Z</time>
      </trkpt>
      <trkpt lat="47.23932" lon="6.07794">
        <ele>515</ele>
        <time>2018-05-01T10:05:47Z</time>
      </trkpt>
      <trkpt lat="47.23949" lon="6.07799">
        <ele>514</ele>
        <time>2018-05-01T10:05:52Z</time>
      </trkpt>
      <trkpt lat="47.23962" lon="6.07804">
        <ele>512</ele>
        <time>2018-05-01T10:05:57Z</time>
      </trkpt>
      <trkpt lat="47.2398" lon="6.07812">
        <ele>510</ele>
        <time>2018-05-01T10:06:02Z</time>
      </trkpt>
      <trkpt lat="47.24" lon="6.07819">
        <ele>508</ele>
        <time>2018-05-01T10:06:08Z</time>
      </trkpt>
      <trkpt lat="47.24023" lon="6.07826">
        <ele>506</ele>
        <time>2018-05-01T10:06:15Z</time>
      </trkpt>
      <trkpt lat="47.24039" lon="6.07832">
        <ele>504</ele>
        <time>2018-05-01T10:06:20Z</time>
      </trkpt>
      <trkpt lat="47.24056" lon="6.07844">
        <ele>502</ele>
        <time>2018-05-01T10:06:25Z</time>
      </trkpt>
      <trkpt lat="47.2407" lon="6.07855">
        <ele>500</ele>
        <time>2018-05-01T10:06:31Z</time>
      </trkpt>
      <trkpt lat="47.24077" lon="6.0786">
        <ele>500</ele>
        <time>2018-05-01T10:06:32Z</time>
      </trkpt>
      <trkpt lat="47.24079" lon="6.07863">
        <ele>499</ele>
        <time>2018-05-01T10:06:33Z</time>
      </trkpt>
      <trkpt lat="47.24087" lon="6.07869">
        <ele>498</ele>
        <time>2018-05-01T10:06:36Z</time>
      </trkpt>
      <trkpt lat="47.24104" lon="6.0788">
        <ele>497</ele>
        <time>2018-05-01T10:06:42Z</time>
      </trkpt>
      <trkpt lat="47.24124" lon="6.07892">
        <ele>496</ele>
        <time>2018-05-01T10:06:47Z</time>
      </trkpt>
      <trkpt lat="47.24137" lon="6.07902">
        <ele>495</ele>
        <time>2018-05-01T10:06:52Z</time>
      </trkpt>
      <trkpt lat="47.24157" lon="6.0791">
        <ele>494</ele>
        <time>2018-05-01T10:06:56Z</time>
      </trkpt>
      <trkpt lat="47.24176" lon="6.07914">
        <ele>493</ele>
        <time>2018-05-01T10:07:02Z</time>
      </trkpt>
      <trkpt lat="47.24187" lon="6.0792">
        <ele>493</ele>
        <time>2018-05-01T10:07:06Z</time>
      </trkpt>
      <trkpt lat="47.24194" lon="6.07925">
        <ele>492</ele>
        <time>2018-05-01T10:07:09Z</time>
      </trkpt>
      <trkpt lat="47.24207" lon="6.07936">
        <ele>491</ele>
        <time>2018-05-01T10:07:13Z</time>
      </trkpt>
      <trkpt lat="47.24224" lon="6.07952">
        <ele>490</ele>
        <time>2018-05-01T10:07:20Z</time>
      </trkpt>
      <trkpt lat="47.2424" lon="6.07961">
        <ele>490</ele>
        <time>2018-05-01T10:07:25Z</time>
      </trkpt>
      <trkpt lat="47.24253" lon="6.07969">
        <ele>489</ele>
        <time>2018-05-01T10:07:28Z</time>
      </trkpt>
      <trkpt lat="47.24256" lon="6.07971">
        <ele>489</ele>
        <time>2018-05-01T10:07:30Z</time>
      </trkpt>
      <trkpt lat="47.24266" lon="6.07979">
        <ele>488</ele>
        <time>2018-05-01T10:07:34Z</time>
      </trkpt>
      <trkpt lat="47.24283" lon="6.07982">
        <ele>488</ele>
        <time>2018-05-01T10:07:39Z</time>
      </trkpt>
      <trkpt lat="47.24295" lon="6.07975">
        <ele>488</ele>
        <time>2018-05-01T10:07:42Z</time>
      </trkpt>
      <trkpt lat="47.243" lon="6.07968">
        <ele>488</ele>
        <time>2018-05-01T10:07:45Z</time>
      </trkpt>
      <trkpt lat="47.24316" lon="6.07964">
        <ele>487</ele>
        <time>2018-05-01T10:07:50Z</time>
      </trkpt>
      <trkpt lat="47.24322" lon="6.07963">
        <ele>486</ele>
        <time>2018-05-01T10:07:52Z</time>
      </trkpt>
      <trkpt lat="47.24336" lon="6.07965">
        <ele>486</ele>
        <time>2018-05-01T10:07:57Z</time>
      </trkpt>
      <trkpt lat="47.2435" lon="6.07965">
        <ele>485</ele>
        <time>2018-05-01T10:08:01Z</time>
      </trkpt>
      <trkpt lat="47.24366" lon="6.07964">
        <ele>484</ele>
        <time>2018-05-01T10:08:06Z</time>
      </trkpt>
      <trkpt lat="47.24386" lon="6.07962">
        <ele>482</ele>
        <time>2018-05-01T10:08:11Z</time>
      </trkpt>
      <trkpt lat="47.24405" lon="6.07957">
        <ele>481</ele>
        <time>2018-05-01T10:08:16Z</time>
      </trkpt>
      <trkpt lat="47.24422" lon="6.07954">
        <ele>479</ele>
        <time>2018-05-01T10:08:22Z</time>
      </trkpt>
      <trkpt lat="47.24432" lon="6.0795">
        <ele>478</ele>
        <time>2018-05-01T10:08:25Z</time>
      </trkpt>
      <trkpt lat="47.24447" lon="6.07945">
        <ele>476</ele>
        <time>2018-05-01T10:08:31Z</time>
      </trkpt>
      <trkpt lat="47.2446" lon="6.07945">
        <ele>476</ele>
        <time>2018-05-01T10:08:35Z</time>
      </trkpt>
      <trkpt lat="47.24472" lon="6.07948">
        <ele>475</ele>
        <time>2018-05-01T10:08:39Z</time>
      </trkpt>
      <trkpt lat="47.24489" lon="6.07957">
        <ele>474</ele>
        <time>2018-05-01T10:08:45Z</time>
      </trkpt>
      <trkpt lat="47.24502" lon="6.07964">
        <ele>473</ele>
        <time>2018-05-01T10:08:50Z</time>
      </trkpt>
      <trkpt lat="47.24517" lon="6.07975">
        <ele>472</ele>
        <time>2018-05-01T10:08:56Z</time>
      </trkpt>
      <trkpt lat="47.24519" lon="6.07976">
        <ele>472</ele>
        <time>2018-05-01T10:08:57Z</time>
      </trkpt>
      <trkpt lat="47.24529" lon="6.07972">
        <ele>471</ele>
        <time>2018-05-01T10:09:01Z</time>
      </trkpt>
      <trkpt lat="47.24532" lon="6.07968">
        <ele>471</ele>
        <time>2018-05-01T10:09:02Z</time>
      </trkpt>
      <trkpt lat="47.24538" lon="6.07953">
        <ele>471</ele>
        <time>2018-05-01T10:09:07Z</time>
      </trkpt>
      <trkpt lat="47.2454" lon="6.0795">
        <ele>471</ele>
        <time>2018-05-01T10:09:09Z</time>
      </trkpt>
      <trkpt lat="47.24542" lon="6.07948">
        <ele>471</ele>
        <time>2018-05-01T10:09:10Z</time>
      </trkpt>
      <trkpt lat="47.24551" lon="6.07941">
        <ele>471</ele>
        <time>2018-05-01T10:09:13Z</time>
      </trkpt>
      <trkpt lat="47.24557" lon="6.07939">
        <ele>471</ele>
        <time>2018-05-01T10:09:16Z</time>
      </trkpt>
      <trkpt lat="47.24561" lon="6.07933">
        <ele>471</ele>
        <time>2018-05-01T10:09:21Z</time>
      </trkpt>
      <trkpt lat="47.24563" lon="6.07929">
        <ele>471</ele>
        <time>2018-05-01T10:09:23Z</time>
      </trkpt>
      <trkpt lat="47.24565" lon="6.07929">
        <ele>471</ele>
        <time>2018-05-01T10:09:24Z</time>
      </trkpt>
      <trkpt lat="47.2457" lon="6.07924">
        <ele>472</ele>
        <time>2018-05-01T10:09:27Z</time>
      </trkpt>
      <trkpt lat="47.24572" lon="6.07921">
        <ele>472</ele>
        <time>2018-05-01T10:09:29Z</time>
      </trkpt>
      <trkpt lat="47.24571" lon="6.07919">
        <ele>472</ele>
        <time>2018-05-01T10:09:30Z</time>
      </trkpt>
      <trkpt lat="47.24572" lon="6.07916">
        <ele>472</ele>
        <time>2018-05-01T10:09:32Z</time>
      </trkpt>
      <trkpt lat="47.24572" lon="6.07915">
        <ele>472</ele>
        <time>2018-05-01T10:09:33Z</time>
      </trkpt>
      <trkpt lat="47.24573" lon="6.07913">
        <ele>473</ele>
        <time>2018-05-01T10:09:34Z</time>
      </trkpt>
      <trkpt lat="47.24571" lon="6.07906">
        <ele>474</ele>
        <time>2018-05-01T10:09:39Z</time>
      </trkpt>
      <trkpt lat="47.24567" lon="6.07904">
        <ele>474</ele>
        <time>2018-05-01T10:09:41Z</time>
      </trkpt>
      <trkpt lat="47.24564" lon="6.07902">
        <ele>474</ele>
        <time>2018-05-01T10:09:43Z</time>
      </trkpt>
      <trkpt lat="47.24558" lon="6.07897">
        <ele>474</ele>
        <time>2018-05-01T10:09:47Z</time>
      </trkpt>
      <trkpt lat="47.24551" lon="6.07892">
        <ele>475</ele>
        <time>2018-05-01T10:09:52Z</time>
      </trkpt>
      <trkpt lat="47.24543" lon="6.07885">
        <ele>476</ele>
        <time>2018-05-01T10:09:57Z</time>
      </trkpt>
      <trkpt lat="47.24533" lon="6.07877">
        <ele>476</ele>
        <time>2018-05-01T10:10:02Z</time>
      </trkpt>
      <trkpt lat="47.24527" lon="6.07871">
        <ele>476</ele>
        <time>2018-05-01T10:10:06Z</time>
      </trkpt>
      <trkpt lat="47.24521" lon="6.07864">
        <ele>477</ele>
        <time>2018-05-01T10:10:10Z</time>
      </trkpt>
      <trkpt lat="47.24519" lon="6.07861">
        <ele>477</ele>
        <time>2018-05-01T10:10:11Z</time>
      </trkpt>
      <trkpt lat="47.24507" lon="6.0785">
        <ele>477</ele>
        <time>2018-05-01T10:10:17Z</time>
      </trkpt>
      <trkpt lat="47.24506" lon="6.07848">
        <ele>477</ele>
        <time>2018-05-01T10:10:18Z</time>
      </trkpt>
      <trkpt lat="47.24506" lon="6.07843">
        <ele>477</ele>
        <time>2018-05-01T10:10:22Z</time>
      </trkpt>
      <trkpt lat="47.24506" lon="6.07839">
        <ele>477</ele>
        <time>2018-05-01T10:10:31Z</time>
      </trkpt>
      <trkpt lat="47.24508" lon="6.07835">
        <ele>477</ele>
        <time>2018-05-01T10:10:39Z</time>
      </trkpt>
      <trkpt lat="47.24511" lon="6.07834">
        <ele>477</ele>
        <time>2018-05-01T10:10:44Z</time>
      </trkpt>
      <trkpt lat="47.24513" lon="6.07833">
        <ele>477</ele>
        <time>2018-05-01T10:10:52Z</time>
      </trkpt>
      <trkpt lat="47.24515" lon="6.07832">
        <ele>477</ele>
        <time>2018-05-01T10:11:02Z</time>
      </trkpt>
      <trkpt lat="47.24517" lon="6.07831">
        <ele>477</ele>
        <time>2018-05-01T10:11:09Z</time>
      </trkpt>
      <trkpt lat="47.2452" lon="6.0783">
        <ele>477</ele>
        <time>2018-05-01T10:11:13Z</time>
      </trkpt>
      <trkpt lat="47.24523" lon="6.07828">
        <ele>477</ele>
        <time>2018-05-01T10:11:22Z</time>
      </trkpt>
      <trkpt lat="47.24526" lon="6.07827">
        <ele>477</ele>
        <time>2018-05-01T10:11:28Z</time>
      </trkpt>
      <trkpt lat="47.24529" lon="6.07826">
        <ele>478</ele>
        <time>2018-05-01T10:11:34Z</time>
      </trkpt>
      <trkpt lat="47.24531" lon="6.07827">
        <ele>478</ele>
        <time>2018-05-01T10:11:41Z</time>
      </trkpt>
      <trkpt lat="47.24538" lon="6.07833">
        <ele>479</ele>
        <time>2018-05-01T10:11:44Z</time>
      </trkpt>
      <trkpt lat="47.2456" lon="6.07845">
        <ele>479</ele>
        <time>2018-05-01T10:11:53Z</time>
      </trkpt>
      <trkpt lat="47.24572" lon="6.07852">
        <ele>479</ele>
        <time>2018-05-01T10:11:57Z</time>
      </trkpt>
      <trkpt lat="47.24574" lon="6.07854">
        <ele>479</ele>
        <time>2018-05-01T10:11:58Z</time>
      </trkpt>
      <trkpt lat="47.24584" lon="6.0786">
        <ele>480</ele>
        <time>2018-05-01T10:12:01Z</time>
      </trkpt>
      <trkpt lat="47.24587" lon="6.07861">
        <ele>480</ele>
        <time>2018-05-01T10:12:03Z</time>
      </trkpt>
      <trkpt lat="47.246" lon="6.07865">
        <ele>480</ele>
        <time>2018-05-01T10:12:07Z</time>
      </trkpt>
      <trkpt lat="47.24613" lon="6.07872">
        <ele>481</ele>
        <time>2018-05-01T10:12:11Z</time>
      </trkpt>
      <trkpt lat="47.2462" lon="6.07878">
        <ele>481</ele>
        <time>2018-05-01T10:12:14Z</time>
      </trkpt>
      <trkpt lat="47.24634" lon="6.07887">
        <ele>482</ele>
        <time>2018-05-01T10:12:18Z</time>
      </trkpt>
      <trkpt lat="47.24647" lon="6.07887">
        <ele>482</ele>
        <time>2018-05-01T10:12:23Z</time>
      </trkpt>
      <trkpt lat="47.24654" lon="6.07888">
        <ele>482</ele>
        <time>2018-05-01T10:12:24Z</time>
      </trkpt>
      <trkpt lat="47.24668" lon="6.07888">
        <ele>483</ele>
        <time>2018-05-01T10:12:29Z</time>
      </trkpt>
      <trkpt lat="47.24682" lon="6.07884">
        <ele>483</ele>
        <time>2018-05-01T10:12:33Z</time>
      </trkpt>
      <trkpt lat="47.24701" lon="6.0789">
        <ele>483</ele>
        <time>2018-05-01T10:12:37Z</time>
      </trkpt>
      <trkpt lat="47.24708" lon="6.07894">
        <ele>483</ele>
        <time>2018-05-01T10:12:39Z</time>
      </trkpt>
      <trkpt lat="47.24712" lon="6.07903">
        <ele>483</ele>
        <time>2018-05-01T10:12:41Z</time>
      </trkpt>
      <trkpt lat="47.24709" lon="6.07911">
        <ele>483</ele>
        <time>2018-05-01T10:12:44Z</time>
      </trkpt>
      <trkpt lat="47.24703" lon="6.07914">
        <ele>483</ele>
        <time>2018-05-01T10:12:48Z</time>
      </trkpt>
      <trkpt lat="47.24695" lon="6.07916">
        <ele>483</ele>
        <time>2018-05-01T10:12:51Z</time>
      </trkpt>
      <trkpt lat="47.2468" lon="6.07916">
        <ele>483</ele>
        <time>2018-05-01T10:12:55Z</time>
      </trkpt>
      <trkpt lat="47.24668" lon="6.0791">
        <ele>483</ele>
        <time>2018-05-01T10:13:01Z</time>
      </trkpt>
      <trkpt lat="47.24659" lon="6.07909">
        <ele>483</ele>
        <time>2018-05-01T10:13:04Z</time>
      </trkpt>
      <trkpt lat="47.24641" lon="6.07908">
        <ele>482</ele>
        <time>2018-05-01T10:13:09Z</time>
      </trkpt>
      <trkpt lat="47.24626" lon="6.07908">
        <ele>482</ele>
        <time>2018-05-01T10:13:13Z</time>
      </trkpt>
      <trkpt lat="47.24617" lon="6.07909">
        <ele>481</ele>
        <time>2018-05-01T10:13:17Z</time>
      </trkpt>
      <trkpt lat="47.24612" lon="6.07933">
        <ele>480</ele>
        <time>2018-05-01T10:13:23Z</time>
      </trkpt>
      <trkpt lat="47.24619" lon="6.0795">
        <ele>479</ele>
        <time>2018-05-01T10:13:27Z</time>
      </trkpt>
      <trkpt lat="47.24628" lon="6.07977">
        <ele>478</ele>
        <time>2018-05-01T10:13:33Z</time>
      </trkpt>
      <trkpt lat="47.2463" lon="6.07996">
        <ele>478</ele>
        <time>2018-05-01T10:13:37Z</time>
      </trkpt>
      <trkpt lat="47.24636" lon="6.08022">
        <ele>477</ele>
        <time>2018-05-01T10:13:43Z</time>
      </trkpt>
      <trkpt lat="47.24642" lon="6.08041">
        <ele>477</ele>
        <time>2018-05-01T10:13:47Z</time>
      </trkpt>
      <trkpt lat="47.2464" lon="6.08054">
        <ele>478</ele>
        <time>2018-05-01T10:13:52Z</time>
      </trkpt>
      <trkpt lat="47.24644" lon="6.08065">
        <ele>478</ele>
        <time>2018-05-01T10:13:55Z</time>
      </trkpt>
      <trkpt lat="47.24648" lon="6.08074">
        <ele>478</ele>
        <time>2018-05-01T10:13:59Z</time>
      </trkpt>
      <trkpt lat="47.24651" lon="6.08095">
        <ele>479</ele>
        <time>2018-05-01T10:14:06Z</time>
      </trkpt>
      <trkpt lat="47.24654" lon="6.08106">
        <ele>479</ele>
        <time>2018-05-01T10:14:09Z</time>
      </trkpt>
      <trkpt lat="47.24663" lon="6.08131">
        <ele>479</ele>
        <time>2018-05-01T10:14:14Z</time>
      </trkpt>
      <trkpt lat="47.2467" lon="6.08157">
        <ele>479</ele>
        <time>2018-05-01T10:14:20Z</time>
      </trkpt>
      <trkpt lat="47.24673" lon="6.08164">
        <ele>479</ele>
        <time>2018-05-01T10:14:23Z</time>
      </trkpt>
      <trkpt lat="47.24675" lon="6.08168">
        <ele>479</ele>
        <time>2018-05-01T10:14:24Z</time>
      </trkpt>
      <trkpt lat="47.24682" lon="6.08188">
        <ele>479</ele>
        <time>2018-05-01T10:14:29Z</time>
      </trkpt>
      <trkpt lat="47.24687" lon="6.08207">
        <ele>479</ele>
        <time>2018-05-01T10:14:34Z</time>
      </trkpt>
      <trkpt lat="47.24687" lon="6.0821">
        <ele>479</ele>
        <time>2018-05-01T10:14:35Z</time>
      </trkpt>
      <trkpt lat="47.24692" lon="6.08225">
        <ele>479</ele>
        <time>2018-05-01T10:14:39Z</time>
      </trkpt>
      <trkpt lat="47.24692" lon="6.08228">
        <ele>479</ele>
        <time>2018-05-01T10:14:40Z</time>
      </trkpt>
      <trkpt lat="47.24693" lon="6.08233">
        <ele>480</ele>
        <time>2018-05-01T10:14:43Z</time>
      </trkpt>
      <trkpt lat="47.24693" lon="6.08245">
        <ele>480</ele>
        <time>2018-05-01T10:14:49Z</time>
      </trkpt>
      <trkpt lat="47.24694" lon="6.08247">
        <ele>480</ele>
        <time>2018-05-01T10:14:49Z</time>
      </trkpt>
      <trkpt lat="47.24694" lon="6.0825">
        <ele>480</ele>
        <time>2018-05-01T10:14:51Z</time>
      </trkpt>
      <trkpt lat="47.24693" lon="6.08263">
        <ele>481</ele>
        <time>2018-05-01T10:14:56Z</time>
      </trkpt>
      <trkpt lat="47.24697" lon="6.08271">
        <ele>481</ele>
        <time>2018-05-01T10:14:59Z</time>
      </trkpt>
      <trkpt lat="47.24698" lon="6.08282">
        <ele>482</ele>
        <time>2018-05-01T10:15:02Z</time>
      </trkpt>
      <trkpt lat="47.24696" lon="6.08298">
        <ele>482</ele>
        <time>2018-05-01T10:15:06Z</time>
      </trkpt>
      <trkpt lat="47.24696" lon="6.08303">
        <ele>482</ele>
        <time>2018-05-01T10:15:07Z</time>
      </trkpt>
      <trkpt lat="47.24697" lon="6.08314">
        <ele>482</ele>
        <time>2018-05-01T10:15:10Z</time>
      </trkpt>
      <trkpt lat="47.24696" lon="6.08328">
        <ele>483</ele>
        <time>2018-05-01T10:15:14Z</time>
      </trkpt>
      <trkpt lat="47.24698" lon="6.08343">
        <ele>483</ele>
        <time>2018-05-01T10:15:19Z</time>
      </trkpt>
      <trkpt lat="47.24699" lon="6.08354">
        <ele>484</ele>
        <time>2018-05-01T10:15:23Z</time>
      </trkpt>
      <trkpt lat="47.247" lon="6.08357">
        <ele>484</ele>
        <time>2018-05-01T10:15:24Z</time>
      </trkpt>
      <trkpt lat="47.247" lon="6.0836">
        <ele>484</ele>
        <time>2018-05-01T10:15:25Z</time>
      </trkpt>
      <trkpt lat="47.24702" lon="6.0837">
        <ele>484</ele>
        <time>2018-05-01T10:15:29Z</time>
      </trkpt>
      <trkpt lat="47.24709" lon="6.08384">
        <ele>485</ele>
        <time>2018-05-01T10:15:34Z</time>
      </trkpt>
      <trkpt lat="47.24712" lon="6.08394">
        <ele>486</ele>
        <time>2018-05-01T10:15:38Z</time>
      </trkpt>
      <trkpt lat="47.24715" lon="6.08398">
        <ele>486</ele>
        <time>2018-05-01T10:15:40Z</time>
      </trkpt>
      <trkpt lat="47.24719" lon="6.08405">
        <ele>486</ele>
        <time>2018-05-01T10:15:43Z</time>
      </trkpt>
      <trkpt lat="47.24721" lon="6.08413">
        <ele>487</ele>
        <time>2018-05-01T10:15:46Z</time>
      </trkpt>
      <trkpt lat="47.24723" lon="6.08427">
        <ele>487</ele>
        <time>2018-05-01T10:15:52Z</time>
      </trkpt>
      <trkpt lat="47.24724" lon="6.0843">
        <ele>487</ele>
        <time>2018-05-01T10:15:53Z</time>
      </trkpt>
      <trkpt lat="47.24724" lon="6.08432">
        <ele>487</ele>
        <time>2018-05-01T10:15:54Z</time>
      </trkpt>
      <trkpt lat="47.24729" lon="6.08444">
        <ele>487</ele>
        <time>2018-05-01T10:15:59Z</time>
      </trkpt>
      <trkpt lat="47.24733" lon="6.08456">
        <ele>487</ele>
        <time>2018-05-01T10:16:04Z</time>
      </trkpt>
      <trkpt lat="47.24734" lon="6.08458">
        <ele>487</ele>
        <time>2018-05-01T10:16:05Z</time>
      </trkpt>
      <trkpt lat="47.24739" lon="6.08464">
        <ele>487</ele>
        <time>2018-05-01T10:16:08Z</time>
      </trkpt>
      <trkpt lat="47.24747" lon="6.08475">
        <ele>488</ele>
        <time>2018-05-01T10:16:13Z</time>
      </trkpt>
      <trkpt lat="47.24747" lon="6.08476">
        <ele>488</ele>
        <time>2018-05-01T10:16:14Z</time>
      </trkpt>
      <trkpt lat="47.24749" lon="6.08477">
        <ele>488</ele>
        <time>2018-05-01T10:16:14Z</time>
      </trkpt>
      <trkpt lat="47.24757" lon="6.08483">
        <ele>488</ele>
        <time>2018-05-01T10:16:19Z</time>
      </trkpt>
      <trkpt lat="47.24759" lon="6.08484">
        <ele>488</ele>
        <time>2018-05-01T10:16:20Z</time>
      </trkpt>
      <trkpt lat="47.2476" lon="6.08487">
        <ele>489</ele>
        <time>2018-05-01T10:16:21Z</time>
      </trkpt>
      <trkpt lat="47.24765" lon="6.08492">
        <ele>489</ele>
        <time>2018-05-01T10:16:24Z</time>
      </trkpt>
      <trkpt lat="47.24778" lon="6.08502">
        <ele>489</ele>
        <time>2018-05-01T10:16:28Z</time>
      </trkpt>
      <trkpt lat="47.24779" lon="6.08505">
        <ele>489</ele>
        <time>2018-05-01T10:16:29Z</time>
      </trkpt>
      <trkpt lat="47.24782" lon="6.08512">
        <ele>489</ele>
        <time>2018-05-01T10:16:32Z</time>
      </trkpt>
      <trkpt lat="47.24793" lon="6.08522">
        <ele>490</ele>
        <time>2018-05-01T10:16:37Z</time>
      </trkpt>
      <trkpt lat="47.24804" lon="6.08528">
        <ele>490</ele>
        <time>2018-05-01T10:16:42Z</time>
      </trkpt>
      <trkpt lat="47.24816" lon="6.08533">
        <ele>491</ele>
        <time>2018-05-01T10:16:45Z</time>
      </trkpt>
      <trkpt lat="47.24817" lon="6.08534">
        <ele>491</ele>
        <time>2018-05-01T10:16:46Z</time>
      </trkpt>
      <trkpt lat="47.24825" lon="6.08537">
        <ele>492</ele>
        <time>2018-05-01T10:16:50Z</time>
      </trkpt>
      <trkpt lat="47.24827" lon="6.08539">
        <ele>492</ele>
        <time>2018-05-01T10:16:51Z</time>
      </trkpt>
      <trkpt lat="47.24836" lon="6.08547">
        <ele>494</ele>
        <time>2018-05-01T10:16:56Z</time>
      </trkpt>
      <trkpt lat="47.24843" lon="6.08556">
        <ele>495</ele>
        <time>2018-05-01T10:17:01Z</time>
      </trkpt>
      <trkpt lat="47.24848" lon="6.08563">
        <ele>496</ele>
        <time>2018-05-01T10:17:05Z</time>
      </trkpt>
      <trkpt lat="47.24854" lon="6.08574">
        <ele>498</ele>
        <time>2018-05-01T10:17:09Z</time>
      </trkpt>
      <trkpt lat="47.24858" lon="6.08577">
        <ele>498</ele>
        <time>2018-05-01T10:17:12Z</time>
      </trkpt>
      <trkpt lat="47.2487" lon="6.08581">
        <ele>500</ele>
        <time>2018-05-01T10:17:18Z</time>
      </trkpt>
      <trkpt lat="47.2488" lon="6.08584">
        <ele>502</ele>
        <time>2018-05-01T10:17:23Z</time>
      </trkpt>
      <trkpt lat="47.24882" lon="6.08586">
        <ele>502</ele>
        <time>2018-05-01T10:17:24Z</time>
      </trkpt>
      <trkpt lat="47.24892" lon="6.0859">
        <ele>503</ele>
        <time>2018-05-01T10:17:29Z</time>
      </trkpt>
      <trkpt lat="47.24899" lon="6.08592">
        <ele>504</ele>
        <time>2018-05-01T10:17:32Z</time>
      </trkpt>
      <trkpt lat="47.24903" lon="6.08591">
        <ele>504</ele>
        <time>2018-05-01T10:17:34Z</time>
      </trkpt>
      <trkpt lat="47.24912" lon="6.08591">
        <ele>505</ele>
        <time>2018-05-01T10:17:38Z</time>
      </trkpt>
      <trkpt lat="47.24925" lon="6.0859">
        <ele>506</ele>
        <time>2018-05-01T10:17:43Z</time>
      </trkpt>
      <trkpt lat="47.24928" lon="6.0859">
        <ele>507</ele>
        <time>2018-05-01T10:17:44Z</time>
      </trkpt>
      <trkpt lat="47.24941" lon="6.08585">
        <ele>508</ele>
        <time>2018-05-01T10:17:49Z</time>
      </trkpt>
      <trkpt lat="47.24954" lon="6.08583">
        <ele>509</ele>
        <time>2018-05-01T10:17:55Z</time>
      </trkpt>
      <trkpt lat="47.24959" lon="6.08582">
        <ele>509</ele>
        <time>2018-05-01T10:17:58Z</time>
      </trkpt>
      <trkpt lat="47.24964" lon="6.08581">
        <ele>510</ele>
        <time>2018-05-01T10:18:00Z</time>
      </trkpt>
      <trkpt lat="47.24978" lon="6.0858">
        <ele>511</ele>
        <time>2018-05-01T10:18:05Z</time>
      </trkpt>
      <trkpt lat="47.24988" lon="6.08578">
        <ele>512</ele>
        <time>2018-05-01T10:18:09Z</time>
      </trkpt>
      <trkpt lat="47.2499" lon="6.08578">
        <ele>512</ele>
        <time>2018-05-01T10:18:10Z</time>
      </trkpt>
      <trkpt lat="47.24991" lon="6.08578">
        <ele>512</ele>
        <time>2018-05-01T10:18:11Z</time>
      </trkpt>
      <trkpt lat="47.25" lon="6.08576">
        <ele>513</ele>
        <time>2018-05-01T10:18:15Z</time>
      </trkpt>
      <trkpt lat="47.25003" lon="6.08573">
        <ele>514</ele>
        <time>2018-05-01T10:18:17Z</time>
      </trkpt>
      <trkpt lat="47.25014" lon="6.08565">
        <ele>515</ele>
        <time>2018-05-01T10:18:23Z</time>
      </trkpt>
      <trkpt lat="47.25026" lon="6.08558">
        <ele>517</ele>
        <time>2018-05-01T10:18:27Z</time>
      </trkpt>
      <trkpt lat="47.25028" lon="6.08557">
        <ele>517</ele>
        <time>2018-05-01T10:18:28Z</time>
      </trkpt>
      <trkpt lat="47.25036" lon="6.0855">
        <ele>518</ele>
        <time>2018-05-01T10:18:32Z</time>
      </trkpt>
      <trkpt lat="47.25044" lon="6.08543">
        <ele>519</ele>
        <time>2018-05-01T10:18:37Z</time>
      </trkpt>
      <trkpt lat="47.25052" lon="6.08535">
        <ele>521</ele>
        <time>2018-05-01T10:18:43Z</time>
      </trkpt>
      <trkpt lat="47.25056" lon="6.08529">
        <ele>522</ele>
        <time>2018-05-01T10:18:47Z</time>
      </trkpt>
      <trkpt lat="47.25058" lon="6.08528">
        <ele>522</ele>
        <time>2018-05-01T10:18:48Z</time>
      </trkpt>
      <trkpt lat="47.2506" lon="6.08526">
        <ele>522</ele>
        <time>2018-05-01T10:18:49Z</time>
      </trkpt>
      <trkpt lat="47.25061" lon="6.0852">
        <ele>523</ele>
        <time>2018-05-01T10:18:52Z</time>
      </trkpt>
      <trkpt lat="47.25065" lon="6.08513">
        <ele>524</ele>
        <time>2018-05-01T10:18:56Z</time>
      </trkpt>
      <trkpt lat="47.25073" lon="6.08508">
        <ele>526</ele>
        <time>2018-05-01T10:19:01Z</time>
      </trkpt>
      <trkpt lat="47.25077" lon="6.08503">
        <ele>527</ele>
        <time>2018-05-01T10:19:04Z</time>
      </trkpt>
      <trkpt lat="47.2508" lon="6.085">
        <ele>527</ele>
        <time>2018-05-01T10:19:06Z</time>
      </trkpt>
      <trkpt lat="47.25089" lon="6.08499">
        <ele>528</ele>
        <time>2018-05-01T10:19:09Z</time>
      </trkpt>
      <trkpt lat="47.2509" lon="6.08499">
        <ele>528</ele>
        <time>2018-05-01T10:19:10Z</time>
      </trkpt>
      <trkpt lat="47.25092" lon="6.08502">
        <ele>529</ele>
        <time>2018-05-01T10:19:13Z</time>
      </trkpt>
      <trkpt lat="47.25106" lon="6.08513">
        <ele>529</ele>
        <time>2018-05-01T10:19:18Z</time>
      </trkpt>
      <trkpt lat="47.25113" lon="6.08521">
        <ele>529</ele>
        <time>2018-05-01T10:19:22Z</time>
      </trkpt>
      <trkpt lat="47.25114" lon="6.08525">
        <ele>529</ele>
        <time>2018-05-01T10:19:23Z</time>
      </trkpt>
      <trkpt lat="47.25116" lon="6.08527">
        <ele>530</ele>
        <time>2018-05-01T10:19:24Z</time>
      </trkpt>
      <trkpt lat="47.25123" lon="6.0854">
        <ele>530</ele>
        <time>2018-05-01T10:19:29Z</time>
      </trkpt>
      <trkpt lat="47.25129" lon="6.08552">
        <ele>530</ele>
        <time>2018-05-01T10:19:33Z</time>
      </trkpt>
      <trkpt lat="47.25131" lon="6.08554">
        <ele>530</ele>
        <time>2018-05-01T10:19:34Z</time>
      </trkpt>
      <trkpt lat="47.25136" lon="6.08564">
        <ele>530</ele>
        <time>2018-05-01T10:19:37Z</time>
      </trkpt>
      <trkpt lat="47.25138" lon="6.08574">
        <ele>530</ele>
        <time>2018-05-01T10:19:42Z</time>
      </trkpt>
      <trkpt lat="47.2514" lon="6.08581">
        <ele>530</ele>
        <time>2018-05-01T10:19:44Z</time>
      </trkpt>
      <trkpt lat="47.25144" lon="6.08598">
        <ele>530</ele>
        <time>2018-05-01T10:19:51Z</time>
      </trkpt>
      <trkpt lat="47.25146" lon="6.08614">
        <ele>530</ele>
        <time>2018-05-01T10:19:57Z</time>
      </trkpt>
      <trkpt lat="47.25147" lon="6.08627">
        <ele>530</ele>
        <time>2018-05-01T10:20:02Z</time>
      </trkpt>
      <trkpt lat="47.25148" lon="6.0863">
        <ele>530</ele>
        <time>2018-05-01T10:20:03Z</time>
      </trkpt>
      <trkpt lat="47.25149" lon="6.0864">
        <ele>531</ele>
        <time>2018-05-01T10:20:07Z</time>
      </trkpt>
      <trkpt lat="47.25149" lon="6.08643">
        <ele>531</ele>
        <time>2018-05-01T10:20:09Z</time>
      </trkpt>
      <trkpt lat="47.25149" lon="6.08649">
        <ele>532</ele>
        <time>2018-05-01T10:20:12Z</time>
      </trkpt>
      <trkpt lat="47.25154" lon="6.0867">
        <ele>535</ele>
        <time>2018-05-01T10:20:20Z</time>
      </trkpt>
      <trkpt lat="47.25154" lon="6.08673">
        <ele>535</ele>
        <time>2018-05-01T10:20:21Z</time>
      </trkpt>
      <trkpt lat="47.25159" lon="6.08685">
        <ele>537</ele>
        <time>2018-05-01T10:20:27Z</time>
      </trkpt>
      <trkpt lat="47.25161" lon="6.0869">
        <ele>538</ele>
        <time>2018-05-01T10:20:29Z</time>
      </trkpt>
      <trkpt lat="47.25163" lon="6.08707">
        <ele>541</ele>
        <time>2018-05-01T10:20:36Z</time>
      </trkpt>
      <trkpt lat="47.25163" lon="6.08709">
        <ele>542</ele>
        <time>2018-05-01T10:20:37Z</time>
      </trkpt>
      <trkpt lat="47.25167" lon="6.08731">
        <ele>545</ele>
        <time>2018-05-01T10:20:43Z</time>
      </trkpt>
      <trkpt lat="47.25168" lon="6.08739">
        <ele>546</ele>
        <time>2018-05-01T10:20:46Z</time>
      </trkpt>
      <trkpt lat="47.2517" lon="6.08749">
        <ele>548</ele>
        <time>2018-05-01T10:20:49Z</time>
      </trkpt>
      <trkpt lat="47.2517" lon="6.08771">
        <ele>551</ele>
        <time>2018-05-01T10:20:55Z</time>
      </trkpt>
      <trkpt lat="47.25169" lon="6.08785">
        <ele>553</ele>
        <time>2018-05-01T10:21:00Z</time>
      </trkpt>
      <trkpt lat="47.2517" lon="6.08788">
        <ele>554</ele>
        <time>2018-05-01T10:21:01Z</time>
      </trkpt>
      <trkpt lat="47.2517" lon="6.08807">
        <ele>557</ele>
        <time>2018-05-01T10:21:09Z</time>
      </trkpt>
      <trkpt lat="47.2517" lon="6.08809">
        <ele>557</ele>
        <time>2018-05-01T10:21:09Z</time>
      </trkpt>
      <trkpt lat="47.25171" lon="6.08834">
        <ele>561</ele>
        <time>2018-05-01T10:21:18Z</time>
      </trkpt>
      <trkpt lat="47.25173" lon="6.08853">
        <ele>563</ele>
        <time>2018-05-01T10:21:24Z</time>
      </trkpt>
      <trkpt lat="47.25174" lon="6.0887">
        <ele>566</ele>
        <time>2018-05-01T10:21:30Z</time>
      </trkpt>
      <trkpt lat="47.25174" lon="6.08872">
        <ele>567</ele>
        <time>2018-05-01T10:21:31Z</time>
      </trkpt>
      <trkpt lat="47.2517" lon="6.08893">
        <ele>569</ele>
        <time>2018-05-01T10:21:36Z</time>
      </trkpt>
      <trkpt lat="47.2517" lon="6.08918">
        <ele>570</ele>
        <time>2018-05-01T10:21:42Z</time>
      </trkpt>
      <trkpt lat="47.25167" lon="6.08945">
        <ele>571</ele>
        <time>2018-05-01T10:21:49Z</time>
      </trkpt>
      <trkpt lat="47.25165" lon="6.08972">
        <ele>571</ele>
        <time>2018-05-01T10:21:54Z</time>
      </trkpt>
      <trkpt lat="47.2517" lon="6.08999">
        <ele>571</ele>
        <time>2018-05-01T10:22:01Z</time>
      </trkpt>
      <trkpt lat="47.2517" lon="6.09029">
        <ele>571</ele>
        <time>2018-05-01T10:22:07Z</time>
      </trkpt>
      <trkpt lat="47.25165" lon="6.09057">
        <ele>571</ele>
        <time>2018-05-01T10:22:14Z</time>
      </trkpt>
      <trkpt lat="47.25162" lon="6.09075">
        <ele>570</ele>
        <time>2018-05-01T10:22:19Z</time>
      </trkpt>
      <trkpt lat="47.25157" lon="6.09099">
        <ele>570</ele>
        <time>2018-05-01T10:22:25Z</time>
      </trkpt>
      <trkpt lat="47.2515" lon="6.09121">
        <ele>569</ele>
        <time>2018-05-01T10:22:31Z</time>
      </trkpt>
      <trkpt lat="47.25147" lon="6.09136">
        <ele>569</ele>
        <time>2018-05-01T10:22:36Z</time>
      </trkpt>
      <trkpt lat="47.25151" lon="6.0915">
        <ele>569</ele>
        <time>2018-05-01T10:22:39Z</time>
      </trkpt>
      <trkpt lat="47.2516" lon="6.09169">
        <ele>569</ele>
        <time>2018-05-01T10:22:44Z</time>
      </trkpt>
      <trkpt lat="47.25168" lon="6.09188">
        <ele>569</ele>
        <time>2018-05-01T10:22:49Z</time>
      </trkpt>
      <trkpt lat="47.25177" lon="6.09212">
        <ele>569</ele>
        <time>2018-05-01T10:22:54Z</time>
      </trkpt>
      <trkpt lat="47.25185" lon="6.09241">
        <ele>569</ele>
        <time>2018-05-01T10:23:01Z</time>
      </trkpt>
      <trkpt lat="47.25193" lon="6.0927">
        <ele>569</ele>
        <time>2018-05-01T10:23:07Z</time>
      </trkpt>
      <trkpt lat="47.25203" lon="6.09297">
        <ele>568</ele>
        <time>2018-05-01T10:23:13Z</time>
      </trkpt>
      <trkpt lat="47.25214" lon="6.0932">
        <ele>567</ele>
        <time>2018-05-01T10:23:19Z</time>
      </trkpt>
      <trkpt lat="47.25219" lon="6.09333">
        <ele>566</ele>
        <time>2018-05-01T10:23:25Z</time>
      </trkpt>
      <trkpt lat="47.25222" lon="6.09344">
        <ele>566</ele>
        <time>2018-05-01T10:23:29Z</time>
      </trkpt>
      <trkpt lat="47.25229" lon="6.09355">
        <ele>565</ele>
        <time>2018-05-01T10:23:33Z</time>
      </trkpt>
      <trkpt lat="47.25234" lon="6.09367">
        <ele>564</ele>
        <time>2018-05-01T10:23:38Z</time>
      </trkpt>
      <trkpt lat="47.25236" lon="6.09369">
        <ele>564</ele>
        <time>2018-05-01T10:23:39Z</time>
      </trkpt>
      <trkpt lat="47.2524" lon="6.09382">
        <ele>564</ele>
        <time>2018-05-01T10:23:44Z</time>
      </trkpt>
      <trkpt lat="47.25245" lon="6.09397">
        <ele>563</ele>
        <time>2018-05-01T10:23:48Z</time>
      </trkpt>
      <trkpt lat="47.25251" lon="6.09408">
        <ele>562</ele>
        <time>2018-05-01T10:23:52Z</time>
      </trkpt>
      <trkpt lat="47.25259" lon="6.09411">
        <ele>562</ele>
        <time>2018-05-01T10:23:54Z</time>
      </trkpt>
      <trkpt lat="47.25263" lon="6.09419">
        <ele>562</ele>
        <time>2018-05-01T10:23:58Z</time>
      </trkpt>
      <trkpt lat="47.25268" lon="6.09429">
        <ele>561</ele>
        <time>2018-05-01T10:24:00Z</time>
      </trkpt>
      <trkpt lat="47.25275" lon="6.0944">
        <ele>560</ele>
        <time>2018-05-01T10:24:04Z</time>
      </trkpt>
      <trkpt lat="47.25283" lon="6.09453">
        <ele>560</ele>
        <time>2018-05-01T10:24:09Z</time>
      </trkpt>
      <trkpt lat="47.2529" lon="6.09462">
        <ele>559</ele>
        <time>2018-05-01T10:24:13Z</time>
      </trkpt>
      <trkpt lat="47.25297" lon="6.09477">
        <ele>559</ele>
        <time>2018-05-01T10:24:17Z</time>
      </trkpt>
      <trkpt lat="47.25309" lon="6.09498">
        <ele>558</ele>
        <time>2018-05-01T10:24:23Z</time>
      </trkpt>
      <trkpt lat="47.25314" lon="6.09511">
        <ele>558</ele>
        <time>2018-05-01T10:24:27Z</time>
      </trkpt>
      <trkpt lat="47.25318" lon="6.09525">
        <ele>557</ele>
        <time>2018-05-01T10:24:31Z</time>
      </trkpt>
      <trkpt lat="47.25318" lon="6.09532">
        <ele>557</ele>
        <time>2018-05-01T10:24:33Z</time>
      </trkpt>
      <trkpt lat="47.2532" lon="6.09544">
        <ele>557</ele>
        <time>2018-05-01T10:24:36Z</time>
      </trkpt>
      <trkpt lat="47.25322" lon="6.09559">
        <ele>557</ele>
        <time>2018-05-01T10:24:41Z</time>
      </trkpt>
      <trkpt lat="47.25322" lon="6.0957">
        <ele>557</ele>
        <time>2018-05-01T10:24:44Z</time>
      </trkpt>
      <trkpt lat="47.25323" lon="6.09578">
        <ele>557</ele>
        <time>2018-05-01T10:24:46Z</time>
      </trkpt>
      <trkpt lat="47.25326" lon="6.0959">
        <ele>557</ele>
        <time>2018-05-01T10:24:50Z</time>
      </trkpt>
      <trkpt lat="47.25322" lon="6.09607">
        <ele>557</ele>
        <time>2018-05-01T10:24:55Z</time>
      </trkpt>
      <trkpt lat="47.25323" lon="6.09622">
        <ele>557</ele>
        <time>2018-05-01T10:25:00Z</time>
      </trkpt>
      <trkpt lat="47.25324" lon="6.09626">
        <ele>557</ele>
        <time>2018-05-01T10:25:01Z</time>
      </trkpt>
      <trkpt lat="47.25324" lon="6.09629">
        <ele>557</ele>
        <time>2018-05-01T10:25:02Z</time>
      </trkpt>
      <trkpt lat="47.25322" lon="6.09647">
        <ele>557</ele>
        <time>2018-05-01T10:25:09Z</time>
      </trkpt>
      <trkpt lat="47.25322" lon="6.09653">
        <ele>557</ele>
        <time>2018-05-01T10:25:10Z</time>
      </trkpt>
      <trkpt lat="47.25323" lon="6.09661">
        <ele>557</ele>
        <time>2018-05-01T10:25:13Z</time>
      </trkpt>
      <trkpt lat="47.25322" lon="6.09677">
        <ele>556</ele>
        <time>2018-05-01T10:25:19Z</time>
      </trkpt>
      <trkpt lat="47.25323" lon="6.0968">
        <ele>556</ele>
        <time>2018-05-01T10:25:19Z</time>
      </trkpt>
      <trkpt lat="47.25321" lon="6.09693">
        <ele>556</ele>
        <time>2018-05-01T10:25:24Z</time>
      </trkpt>
      <trkpt lat="47.2532" lon="6.09721">
        <ele>555</ele>
        <time>2018-05-01T10:25:29Z</time>
      </trkpt>
      <trkpt lat="47.25321" lon="6.09745">
        <ele>555</ele>
        <time>2018-05-01T10:25:35Z</time>
      </trkpt>
      <trkpt lat="47.25319" lon="6.09762">
        <ele>555</ele>
        <time>2018-05-01T10:25:40Z</time>
      </trkpt>
      <trkpt lat="47.2532" lon="6.09765">
        <ele>555</ele>
        <time>2018-05-01T10:25:41Z</time>
      </trkpt>
      <trkpt lat="47.25319" lon="6.09775">
        <ele>555</ele>
        <time>2018-05-01T10:25:44Z</time>
      </trkpt>
      <trkpt lat="47.25323" lon="6.09791">
        <ele>555</ele>
        <time>2018-05-01T10:25:49Z</time>
      </trkpt>
      <trkpt lat="47.25324" lon="6.09796">
        <ele>555</ele>
        <time>2018-05-01T10:25:50Z</time>
      </trkpt>
      <trkpt lat="47.25326" lon="6.09817">
        <ele>555</ele>
        <time>2018-05-01T10:25:55Z</time>
      </trkpt>
      <trkpt lat="47.25322" lon="6.09829">
        <ele>555</ele>
        <time>2018-05-01T10:25:59Z</time>
      </trkpt>
      <trkpt lat="47.25319" lon="6.09841">
        <ele>556</ele>
        <time>2018-05-01T10:26:02Z</time>
      </trkpt>
      <trkpt lat="47.25316" lon="6.0985">
        <ele>556</ele>
        <time>2018-05-01T10:26:06Z</time>
      </trkpt>
      <trkpt lat="47.25315" lon="6.09862">
        <ele>556</ele>
        <time>2018-05-01T10:26:09Z</time>
      </trkpt>
      <trkpt lat="47.25312" lon="6.09867">
        <ele>557</ele>
        <time>2018-05-01T10:26:10Z</time>
      </trkpt>
      <trkpt lat="47.2531" lon="6.09879">
        <ele>557</ele>
        <time>2018-05-01T10:26:14Z</time>
      </trkpt>
      <trkpt lat="47.25306" lon="6.09902">
        <ele>558</ele>
        <time>2018-05-01T10:26:19Z</time>
      </trkpt>
      <trkpt lat="47.25301" lon="6.0992">
        <ele>559</ele>
        <time>2018-05-01T10:26:24Z</time>
      </trkpt>
      <trkpt lat="47.25299" lon="6.09935">
        <ele>560</ele>
        <time>2018-05-01T10:26:29Z</time>
      </trkpt>
      <trkpt lat="47.25297" lon="6.09937">
        <ele>560</ele>
        <time>2018-05-01T10:26:29Z</time>
      </trkpt>
      <trkpt lat="47.2529" lon="6.09939">
        <ele>560</ele>
        <time>2018-05-01T10:26:34Z</time>
      </trkpt>
      <trkpt lat="47.25285" lon="6.09939">
        <ele>560</ele>
        <time>2018-05-01T10:26:37Z</time>
      </trkpt>
      <trkpt lat="47.25282" lon="6.09939">
        <ele>560</ele>
        <time>2018-05-01T10:26:39Z</time>
      </trkpt>
      <trkpt lat="47.25278" lon="6.09932">
        <ele>561</ele>
        <time>2018-05-01T10:26:44Z</time>
      </trkpt>
      <trkpt lat="47.25275" lon="6.09922">
        <ele>562</ele>
        <time>2018-05-01T10:26:49Z</time>
      </trkpt>
      <trkpt lat="47.25266" lon="6.09917">
        <ele>562</ele>
        <time>2018-05-01T10:26:54Z</time>
      </trkpt>
      <trkpt lat="47.2526" lon="6.09915">
        <ele>563</ele>
        <time>2018-05-01T10:26:59Z</time>
      </trkpt>
      <trkpt lat="47.25254" lon="6.09914">
        <ele>563</ele>
        <time>2018-05-01T10:27:04Z</time>
      </trkpt>
      <trkpt lat="47.25252" lon="6.09914">
        <ele>564</ele>
        <time>2018-05-01T10:27:04Z</time>
      </trkpt>
      <trkpt lat="47.25251" lon="6.09914">
        <ele>564</ele>
        <time>2018-05-01T10:27:06Z</time>
      </trkpt>
      <trkpt lat="47.25229" lon="6.0991">
        <ele>566</ele>
        <time>2018-05-01T10:27:19Z</time>
      </trkpt>
      <trkpt lat="47.25228" lon="6.0991">
        <ele>566</ele>
        <time>2018-05-01T10:27:20Z</time>
      </trkpt>
      <trkpt lat="47.25216" lon="6.09913">
        <ele>566</ele>
        <time>2018-05-01T10:27:27Z</time>
      </trkpt>
      <trkpt lat="47.25207" lon="6.09918">
        <ele>567</ele>
        <time>2018-05-01T10:27:31Z</time>
      </trkpt>
      <trkpt lat="47.25204" lon="6.09922">
        <ele>568</ele>
        <time>2018-05-01T10:27:34Z</time>
      </trkpt>
      <trkpt lat="47.252" lon="6.09931">
        <ele>568</ele>
        <time>2018-05-01T10:27:37Z</time>
      </trkpt>
      <trkpt lat="47.25192" lon="6.09942">
        <ele>569</ele>
        <time>2018-05-01T10:27:44Z</time>
      </trkpt>
      <trkpt lat="47.2519" lon="6.09943">
        <ele>570</ele>
        <time>2018-05-01T10:27:46Z</time>
      </trkpt>
      <trkpt lat="47.25187" lon="6.09948">
        <ele>570</ele>
        <time>2018-05-01T10:27:49Z</time>
      </trkpt>
      <trkpt lat="47.25187" lon="6.09951">
        <ele>570</ele>
        <time>2018-05-01T10:27:51Z</time>
      </trkpt>
      <trkpt lat="47.25183" lon="6.09961">
        <ele>571</ele>
        <time>2018-05-01T10:27:55Z</time>
      </trkpt>
      <trkpt lat="47.25183" lon="6.09964">
        <ele>571</ele>
        <time>2018-05-01T10:27:56Z</time>
      </trkpt>
      <trkpt lat="47.25183" lon="6.09969">
        <ele>571</ele>
        <time>2018-05-01T10:27:58Z</time>
      </trkpt>
      <trkpt lat="47.25183" lon="6.09979">
        <ele>572</ele>
        <time>2018-05-01T10:28:03Z</time>
      </trkpt>
      <trkpt lat="47.25177" lon="6.09989">
        <ele>573</ele>
        <time>2018-05-01T10:28:07Z</time>
      </trkpt>
      <trkpt lat="47.25181" lon="6.1">
        <ele>574</ele>
        <time>2018-05-01T10:28:11Z</time>
      </trkpt>
      <trkpt lat="47.25184" lon="6.10015">
        <ele>574</ele>
        <time>2018-05-01T10:28:16Z</time>
      </trkpt>
      <trkpt lat="47.25185" lon="6.10029">
        <ele>576</ele>
        <time>2018-05-01T10:28:20Z</time>
      </trkpt>
      <trkpt lat="47.25182" lon="6.10047">
        <ele>577</ele>
        <time>2018-05-01T10:28:26Z</time>
      </trkpt>
      <trkpt lat="47.25181" lon="6.1005">
        <ele>577</ele>
        <time>2018-05-01T10:28:27Z</time>
      </trkpt>
      <trkpt lat="47.25175" lon="6.10058">
        <ele>578</ele>
        <time>2018-05-01T10:28:31Z</time>
      </trkpt>
      <trkpt lat="47.25164" lon="6.10062">
        <ele>580</ele>
        <time>2018-05-01T10:28:37Z</time>
      </trkpt>
      <trkpt lat="47.25157" lon="6.10059">
        <ele>581</ele>
        <time>2018-05-01T10:28:42Z</time>
      </trkpt>
      <trkpt lat="47.25148" lon="6.10052">
        <ele>583</ele>
        <time>2018-05-01T10:28:47Z</time>
      </trkpt>
      <trkpt lat="47.25145" lon="6.10051">
        <ele>583</ele>
        <time>2018-05-01T10:28:49Z</time>
      </trkpt>
      <trkpt lat="47.25137" lon="6.10056">
        <ele>585</ele>
        <time>2018-05-01T10:28:54Z</time>
      </trkpt>
      <trkpt lat="47.25134" lon="6.10062">
        <ele>586</ele>
        <time>2018-05-01T10:28:57Z</time>
      </trkpt>
      <trkpt lat="47.25134" lon="6.10067">
        <ele>587</ele>
        <time>2018-05-01T10:28:59Z</time>
      </trkpt>
      <trkpt lat="47.25137" lon="6.10083">
        <ele>589</ele>
        <time>2018-05-01T10:29:04Z</time>
      </trkpt>
      <trkpt lat="47.25138" lon="6.10088">
        <ele>590</ele>
        <time>2018-05-01T10:29:07Z</time>
      </trkpt>
      <trkpt lat="47.25131" lon="6.10092">
        <ele>591</ele>
        <time>2018-05-01T10:29:11Z</time>
      </trkpt>
      <trkpt lat="47.25124" lon="6.10085">
        <ele>592</ele>
        <time>2018-05-01T10:29:14Z</time>
      </trkpt>
      <trkpt lat="47.25122" lon="6.10081">
        <ele>592</ele>
        <time>2018-05-01T10:29:16Z</time>
      </trkpt>
      <trkpt lat="47.25103" lon="6.10053">
        <ele>594</ele>
        <time>2018-05-01T10:29:27Z</time>
      </trkpt>
      <trkpt lat="47.25089" lon="6.10026">
        <ele>596</ele>
        <time>2018-05-01T10:29:37Z</time>
      </trkpt>
      <trkpt lat="47.25082" lon="6.1001">
        <ele>596</ele>
        <time>2018-05-01T10:29:42Z</time>
      </trkpt>
      <trkpt lat="47.25077" lon="6.09997">
        <ele>597</ele>
        <time>2018-05-01T10:29:46Z</time>
      </trkpt>
      <trkpt lat="47.25068" lon="6.09978">
        <ele>597</ele>
        <time>2018-05-01T10:29:53Z</time>
      </trkpt>
      <trkpt lat="47.25066" lon="6.09975">
        <ele>597</ele>
        <time>2018-05-01T10:29:54Z</time>
      </trkpt>
      <trkpt lat="47.25058" lon="6.09954">
        <ele>596</ele>
        <time>2018-05-01T10:29:59Z</time>
      </trkpt>
      <trkpt lat="47.25046" lon="6.09932">
        <ele>596</ele>
        <time>2018-05-01T10:30:06Z</time>
      </trkpt>
      <trkpt lat="47.25033" lon="6.09919">
        <ele>595</ele>
        <time>2018-05-01T10:30:10Z</time>
      </trkpt>
      <trkpt lat="47.25015" lon="6.09912">
        <ele>595</ele>
        <time>2018-05-01T10:30:17Z</time>
      </trkpt>
      <trkpt lat="47.25001" lon="6.09905">
        <ele>595</ele>
        <time>2018-05-01T10:30:22Z</time>
      </trkpt>
      <trkpt lat="47.24989" lon="6.09899">
        <ele>595</ele>
        <time>2018-05-01T10:30:27Z</time>
      </trkpt>
      <trkpt lat="47.24977" lon="6.09888">
        <ele>595</ele>
        <time>2018-05-01T10:30:31Z</time>
      </trkpt>
      <trkpt lat="47.24974" lon="6.09885">
        <ele>595</ele>
        <time>2018-05-01T10:30:33Z</time>
      </trkpt>
      <trkpt lat="47.24963" lon="6.09867">
        <ele>595</ele>
        <time>2018-05-01T10:30:39Z</time>
      </trkpt>
      <trkpt lat="47.24953" lon="6.0985">
        <ele>596</ele>
        <time>2018-05-01T10:30:43Z</time>
      </trkpt>
      <trkpt lat="47.24947" lon="6.09835">
        <ele>596</ele>
        <time>2018-05-01T10:30:48Z</time>
      </trkpt>
      <trkpt lat="47.24955" lon="6.09826">
        <ele>597</ele>
        <time>2018-05-01T10:30:52Z</time>
      </trkpt>
      <trkpt lat="47.24957" lon="6.09825">
        <ele>597</ele>
        <time>2018-05-01T10:30:53Z</time>
      </trkpt>
      <trkpt lat="47.24964" lon="6.09815">
        <ele>597</ele>
        <time>2018-05-01T10:30:57Z</time>
      </trkpt>
      <trkpt lat="47.24967" lon="6.09793">
        <ele>598</ele>
        <time>2018-05-01T10:31:03Z</time>
      </trkpt>
      <trkpt lat="47.24967" lon="6.09773">
        <ele>599</ele>
        <time>2018-05-01T10:31:07Z</time>
      </trkpt>
      <trkpt lat="47.24965" lon="6.09752">
        <ele>600</ele>
        <time>2018-05-01T10:31:13Z</time>
      </trkpt>
      <trkpt lat="47.24957" lon="6.09735">
        <ele>601</ele>
        <time>2018-05-01T10:31:18Z</time>
      </trkpt>
      <trkpt lat="47.24948" lon="6.09709">
        <ele>602</ele>
        <time>2018-05-01T10:31:24Z</time>
      </trkpt>
      <trkpt lat="47.2494" lon="6.09687">
        <ele>603</ele>
        <time>2018-05-01T10:31:31Z</time>
      </trkpt>
      <trkpt lat="47.2493" lon="6.09668">
        <ele>603</ele>
        <time>2018-05-01T10:31:37Z</time>
      </trkpt>
      <trkpt lat="47.2492" lon="6.09647">
        <ele>603</ele>
        <time>2018-05-01T10:31:43Z</time>
      </trkpt>
      <trkpt lat="47.24911" lon="6.09623">
        <ele>603</ele>
        <time>2018-05-01T10:31:49Z</time>
      </trkpt>
      <trkpt lat="47.24903" lon="6.09603">
        <ele>603</ele>
        <time>2018-05-01T10:31:55Z</time>
      </trkpt>
      <trkpt lat="47.24894" lon="6.09579">
        <ele>603</ele>
        <time>2018-05-01T10:32:01Z</time>
      </trkpt>
      <trkpt lat="47.24885" lon="6.09558">
        <ele>602</ele>
        <time>2018-05-01T10:32:07Z</time>
      </trkpt>
      <trkpt lat="47.24878" lon="6.09534">
        <ele>601</ele>
        <time>2018-05-01T10:32:14Z</time>
      </trkpt>
      <trkpt lat="47.24876" lon="6.09512">
        <ele>600</ele>
        <time>2018-05-01T10:32:19Z</time>
      </trkpt>
      <trkpt lat="47.24878" lon="6.09489">
        <ele>599</ele>
        <time>2018-05-01T10:32:25Z</time>
      </trkpt>
      <trkpt lat="47.24878" lon="6.09462">
        <ele>598</ele>
        <time>2018-05-01T10:32:32Z</time>
      </trkpt>
      <trkpt lat="47.2488" lon="6.09438">
        <ele>598</ele>
        <time>2018-05-01T10:32:39Z</time>
      </trkpt>
      <trkpt lat="47.2488" lon="6.09435">
        <ele>597</ele>
        <time>2018-05-01T10:32:39Z</time>
      </trkpt>
      <trkpt lat="47.24879" lon="6.09418">
        <ele>597</ele>
        <time>2018-05-01T10:32:44Z</time>
      </trkpt>
      <trkpt lat="47.24875" lon="6.0941">
        <ele>597</ele>
        <time>2018-05-01T10:32:47Z</time>
      </trkpt>
      <trkpt lat="47.24864" lon="6.0939">
        <ele>597</ele>
        <time>2018-05-01T10:32:54Z</time>
      </trkpt>
      <trkpt lat="47.24859" lon="6.09379">
        <ele>597</ele>
        <time>2018-05-01T10:32:58Z</time>
      </trkpt>
      <trkpt lat="47.24851" lon="6.09368">
        <ele>597</ele>
        <time>2018-05-01T10:33:01Z</time>
      </trkpt>
      <trkpt lat="47.24846" lon="6.0936">
        <ele>598</ele>
        <time>2018-05-01T10:33:04Z</time>
      </trkpt>
      <trkpt lat="47.24844" lon="6.09357">
        <ele>598</ele>
        <time>2018-05-01T10:33:06Z</time>
      </trkpt>
      <trkpt lat="47.24836" lon="6.09345">
        <ele>598</ele>
        <time>2018-05-01T10:33:11Z</time>
      </trkpt>
      <trkpt lat="47.24835" lon="6.09344">
        <ele>598</ele>
        <time>2018-05-01T10:33:11Z</time>
      </trkpt>
      <trkpt lat="47.24835" lon="6.09328">
        <ele>599</ele>
        <time>2018-05-01T10:33:18Z</time>
      </trkpt>
      <trkpt lat="47.2484" lon="6.09312">
        <ele>599</ele>
        <time>2018-05-01T10:33:24Z</time>
      </trkpt>
      <trkpt lat="47.24842" lon="6.09304">
        <ele>599</ele>
        <time>2018-05-01T10:33:28Z</time>
      </trkpt>
      <trkpt lat="47.24836" lon="6.09302">
        <ele>599</ele>
        <time>2018-05-01T10:33:31Z</time>
      </trkpt>
      <trkpt lat="47.24829" lon="6.09303">
        <ele>599</ele>
        <time>2018-05-01T10:33:34Z</time>
      </trkpt>
      <trkpt lat="47.24816" lon="6.09305">
        <ele>599</ele>
        <time>2018-05-01T10:33:40Z</time>
      </trkpt>
      <trkpt lat="47.24807" lon="6.09304">
        <ele>599</ele>
        <time>2018-05-01T10:33:43Z</time>
      </trkpt>
      <trkpt lat="47.24792" lon="6.09307">
        <ele>599</ele>
        <time>2018-05-01T10:33:49Z</time>
      </trkpt>
      <trkpt lat="47.24778" lon="6.09307">
        <ele>599</ele>
        <time>2018-05-01T10:33:54Z</time>
      </trkpt>
      <trkpt lat="47.24767" lon="6.09306">
        <ele>599</ele>
        <time>2018-05-01T10:33:59Z</time>
      </trkpt>
      <trkpt lat="47.24756" lon="6.09308">
        <ele>599</ele>
        <time>2018-05-01T10:34:04Z</time>
      </trkpt>
      <trkpt lat="47.24749" lon="6.09307">
        <ele>599</ele>
        <time>2018-05-01T10:34:07Z</time>
      </trkpt>
      <trkpt lat="47.24743" lon="6.09299">
        <ele>598</ele>
        <time>2018-05-01T10:34:11Z</time>
      </trkpt>
      <trkpt lat="47.24746" lon="6.09296">
        <ele>598</ele>
        <time>2018-05-01T10:34:14Z</time>
      </trkpt>
      <trkpt lat="47.24749" lon="6.0929">
        <ele>597</ele>
        <time>2018-05-01T10:34:19Z</time>
      </trkpt>
      <trkpt lat="47.24752" lon="6.09278">
        <ele>597</ele>
        <time>2018-05-01T10:34:29Z</time>
      </trkpt>
      <trkpt lat="47.24754" lon="6.09273">
        <ele>597</ele>
        <time>2018-05-01T10:34:33Z</time>
      </trkpt>
      <trkpt lat="47.24757" lon="6.09263">
        <ele>597</ele>
        <time>2018-05-01T10:34:38Z</time>
      </trkpt>
      <trkpt lat="47.24762" lon="6.09252">
        <ele>597</ele>
        <time>2018-05-01T10:34:44Z</time>
      </trkpt>
      <trkpt lat="47.24762" lon="6.09243">
        <ele>597</ele>
        <time>2018-05-01T10:34:49Z</time>
      </trkpt>
      <trkpt lat="47.24762" lon="6.09239">
        <ele>597</ele>
        <time>2018-05-01T10:34:51Z</time>
      </trkpt>
      <trkpt lat="47.24762" lon="6.09237">
        <ele>597</ele>
        <time>2018-05-01T10:34:52Z</time>
      </trkpt>
      <trkpt lat="47.24762" lon="6.0923">
        <ele>597</ele>
        <time>2018-05-01T10:34:54Z</time>
      </trkpt>
      <trkpt lat="47.24766" lon="6.09226">
        <ele>597</ele>
        <time>2018-05-01T10:34:59Z</time>
      </trkpt>
      <trkpt lat="47.24773" lon="6.09225">
        <ele>597</ele>
        <time>2018-05-01T10:35:03Z</time>
      </trkpt>
      <trkpt lat="47.2478" lon="6.09218">
        <ele>597</ele>
        <time>2018-05-01T10:35:06Z</time>
      </trkpt>
      <trkpt lat="47.24786" lon="6.09211">
        <ele>597</ele>
        <time>2018-05-01T10:35:09Z</time>
      </trkpt>
      <trkpt lat="47.24792" lon="6.09203">
        <ele>597</ele>
        <time>2018-05-01T10:35:12Z</time>
      </trkpt>
      <trkpt lat="47.24809" lon="6.09187">
        <ele>597</ele>
        <time>2018-05-01T10:35:21Z</time>
      </trkpt>
      <trkpt lat="47.2482" lon="6.09173">
        <ele>598</ele>
        <time>2018-05-01T10:35:28Z</time>
      </trkpt>
      <trkpt lat="47.24823" lon="6.09167">
        <ele>598</ele>
        <time>2018-05-01T10:35:29Z</time>
      </trkpt>
      <trkpt lat="47.24836" lon="6.09153">
        <ele>598</ele>
        <time>2018-05-01T10:35:34Z</time>
      </trkpt>
      <trkpt lat="47.24844" lon="6.09128">
        <ele>599</ele>
        <time>2018-05-01T10:35:41Z</time>
      </trkpt>
      <trkpt lat="47.24843" lon="6.09115">
        <ele>600</ele>
        <time>2018-05-01T10:35:45Z</time>
      </trkpt>
      <trkpt lat="47.24843" lon="6.09112">
        <ele>600</ele>
        <time>2018-05-01T10:35:46Z</time>
      </trkpt>
      <trkpt lat="47.24844" lon="6.091">
        <ele>600</ele>
        <time>2018-05-01T10:35:49Z</time>
      </trkpt>
      <trkpt lat="47.2484" lon="6.0909">
        <ele>601</ele>
        <time>2018-05-01T10:35:53Z</time>
      </trkpt>
      <trkpt lat="47.24837" lon="6.09071">
        <ele>602</ele>
        <time>2018-05-01T10:35:59Z</time>
      </trkpt>
      <trkpt lat="47.24836" lon="6.09057">
        <ele>602</ele>
        <time>2018-05-01T10:36:02Z</time>
      </trkpt>
      <trkpt lat="47.24846" lon="6.09036">
        <ele>603</ele>
        <time>2018-05-01T10:36:08Z</time>
      </trkpt>
      <trkpt lat="47.2485" lon="6.09025">
        <ele>603</ele>
        <time>2018-05-01T10:36:12Z</time>
      </trkpt>
      <trkpt lat="47.24852" lon="6.09018">
        <ele>603</ele>
        <time>2018-05-01T10:36:13Z</time>
      </trkpt>
      <trkpt lat="47.24854" lon="6.09013">
        <ele>603</ele>
        <time>2018-05-01T10:36:14Z</time>
      </trkpt>
      <trkpt lat="47.24859" lon="6.08996">
        <ele>603</ele>
        <time>2018-05-01T10:36:19Z</time>
      </trkpt>
      <trkpt lat="47.24859" lon="6.0898">
        <ele>603</ele>
        <time>2018-05-01T10:36:22Z</time>
      </trkpt>
      <trkpt lat="47.24857" lon="6.08972">
        <ele>603</ele>
        <time>2018-05-01T10:36:24Z</time>
      </trkpt>
      <trkpt lat="47.24857" lon="6.08945">
        <ele>603</ele>
        <time>2018-05-01T10:36:29Z</time>
      </trkpt>
      <trkpt lat="47.24858" lon="6.08921">
        <ele>603</ele>
        <time>2018-05-01T10:36:33Z</time>
      </trkpt>
      <trkpt lat="47.24861" lon="6.08894">
        <ele>603</ele>
        <time>2018-05-01T10:36:39Z</time>
      </trkpt>
      <trkpt lat="47.24859" lon="6.08872">
        <ele>603</ele>
        <time>2018-05-01T10:36:44Z</time>
      </trkpt>
      <trkpt lat="47.24857" lon="6.08854">
        <ele>603</ele>
        <time>2018-05-01T10:36:48Z</time>
      </trkpt>
      <trkpt lat="47.24859" lon="6.08828">
        <ele>602</ele>
        <time>2018-05-01T10:36:53Z</time>
      </trkpt>
      <trkpt lat="47.24866" lon="6.08808">
        <ele>601</ele>
        <time>2018-05-01T10:36:58Z</time>
      </trkpt>
      <trkpt lat="47.24874" lon="6.08783">
        <ele>600</ele>
        <time>2018-05-01T10:37:04Z</time>
      </trkpt>
      <trkpt lat="47.24884" lon="6.0876">
        <ele>598</ele>
        <time>2018-05-01T10:37:10Z</time>
      </trkpt>
      <trkpt lat="47.24887" lon="6.08753">
        <ele>597</ele>
        <time>2018-05-01T10:37:11Z</time>
      </trkpt>
      <trkpt lat="47.2489" lon="6.08747">
        <ele>597</ele>
        <time>2018-05-01T10:37:14Z</time>
      </trkpt>
      <trkpt lat="47.24885" lon="6.08738">
        <ele>596</ele>
        <time>2018-05-01T10:37:17Z</time>
      </trkpt>
      <trkpt lat="47.24864" lon="6.08727">
        <ele>594</ele>
        <time>2018-05-01T10:37:27Z</time>
      </trkpt>
      <trkpt lat="47.24856" lon="6.08732">
        <ele>594</ele>
        <time>2018-05-01T10:37:31Z</time>
      </trkpt>
      <trkpt lat="47.24855" lon="6.08732">
        <ele>594</ele>
        <time>2018-05-01T10:37:32Z</time>
      </trkpt>
      <trkpt lat="47.2485" lon="6.08733">
        <ele>594</ele>
        <time>2018-05-01T10:37:36Z</time>
      </trkpt>
      <trkpt lat="47.24842" lon="6.08735">
        <ele>593</ele>
        <time>2018-05-01T10:37:41Z</time>
      </trkpt>
      <trkpt lat="47.24838" lon="6.08738">
        <ele>593</ele>
        <time>2018-05-01T10:37:44Z</time>
      </trkpt>
      <trkpt lat="47.24831" lon="6.08743">
        <ele>593</ele>
        <time>2018-05-01T10:37:49Z</time>
      </trkpt>
      <trkpt lat="47.24822" lon="6.08751">
        <ele>593</ele>
        <time>2018-05-01T10:37:54Z</time>
      </trkpt>
      <trkpt lat="47.24813" lon="6.08761">
        <ele>593</ele>
        <time>2018-05-01T10:38:01Z</time>
      </trkpt>
      <trkpt lat="47.24804" lon="6.08769">
        <ele>594</ele>
        <time>2018-05-01T10:38:06Z</time>
      </trkpt>
      <trkpt lat="47.24797" lon="6.08783">
        <ele>594</ele>
        <time>2018-05-01T10:38:12Z</time>
      </trkpt>
      <trkpt lat="47.24787" lon="6.08799">
        <ele>596</ele>
        <time>2018-05-01T10:38:19Z</time>
      </trkpt>
      <trkpt lat="47.24785" lon="6.08801">
        <ele>596</ele>
        <time>2018-05-01T10:38:21Z</time>
      </trkpt>
      <trkpt lat="47.2478" lon="6.0881">
        <ele>596</ele>
        <time>2018-05-01T10:38:24Z</time>
      </trkpt>
      <trkpt lat="47.24776" lon="6.08816">
        <ele>597</ele>
        <time>2018-05-01T10:38:28Z</time>
      </trkpt>
      <trkpt lat="47.24774" lon="6.0882">
        <ele>597</ele>
        <time>2018-05-01T10:38:29Z</time>
      </trkpt>
      <trkpt lat="47.24771" lon="6.08829">
        <ele>598</ele>
        <time>2018-05-01T10:38:34Z</time>
      </trkpt>
      <trkpt lat="47.2477" lon="6.08832">
        <ele>598</ele>
        <time>2018-05-01T10:38:34Z</time>
      </trkpt>
      <trkpt lat="47.24769" lon="6.08834">
        <ele>598</ele>
        <time>2018-05-01T10:38:36Z</time>
      </trkpt>
      <trkpt lat="47.24765" lon="6.08845">
        <ele>599</ele>
        <time>2018-05-01T10:38:41Z</time>
      </trkpt>
      <trkpt lat="47.2476" lon="6.08853">
        <ele>600</ele>
        <time>2018-05-01T10:38:44Z</time>
      </trkpt>
      <trkpt lat="47.24757" lon="6.08856">
        <ele>601</ele>
        <time>2018-05-01T10:38:47Z</time>
      </trkpt>
      <trkpt lat="47.24754" lon="6.08859">
        <ele>601</ele>
        <time>2018-05-01T10:38:48Z</time>
      </trkpt>
      <trkpt lat="47.24748" lon="6.08862">
        <ele>602</ele>
        <time>2018-05-01T10:38:53Z</time>
      </trkpt>
      <trkpt lat="47.24732" lon="6.08864">
        <ele>604</ele>
        <time>2018-05-01T10:39:00Z</time>
      </trkpt>
      <trkpt lat="47.2472" lon="6.08864">
        <ele>606</ele>
        <time>2018-05-01T10:39:06Z</time>
      </trkpt>
      <trkpt lat="47.24708" lon="6.08865">
        <ele>607</ele>
        <time>2018-05-01T10:39:10Z</time>
      </trkpt>
      <trkpt lat="47.24678" lon="6.08876">
        <ele>610</ele>
        <time>2018-05-01T10:39:24Z</time>
      </trkpt>
      <trkpt lat="47.24674" lon="6.08878">
        <ele>610</ele>
        <time>2018-05-01T10:39:25Z</time>
      </trkpt>
      <trkpt lat="47.24661" lon="6.08885">
        <ele>611</ele>
        <time>2018-05-01T10:39:30Z</time>
      </trkpt>
      <trkpt lat="47.24646" lon="6.08892">
        <ele>612</ele>
        <time>2018-05-01T10:39:36Z</time>
      </trkpt>
      <trkpt lat="47.24634" lon="6.08901">
        <ele>613</ele>
        <time>2018-05-01T10:39:42Z</time>
      </trkpt>
      <trkpt lat="47.24618" lon="6.08912">
        <ele>615</ele>
        <time>2018-05-01T10:39:48Z</time>
      </trkpt>
      <trkpt lat="47.24608" lon="6.08921">
        <ele>616</ele>
        <time>2018-05-01T10:39:52Z</time>
      </trkpt>
      <trkpt lat="47.24591" lon="6.08915">
        <ele>617</ele>
        <time>2018-05-01T10:39:58Z</time>
      </trkpt>
      <trkpt lat="47.24585" lon="6.08908">
        <ele>617</ele>
        <time>2018-05-01T10:40:00Z</time>
      </trkpt>
      <trkpt lat="47.24583" lon="6.08904">
        <ele>617</ele>
        <time>2018-05-01T10:40:01Z</time>
      </trkpt>
      <trkpt lat="47.24579" lon="6.08898">
        <ele>618</ele>
        <time>2018-05-01T10:40:04Z</time>
      </trkpt>
      <trkpt lat="47.24568" lon="6.08888">
        <ele>618</ele>
        <time>2018-05-01T10:40:08Z</time>
      </trkpt>
      <trkpt lat="47.24544" lon="6.08865">
        <ele>618</ele>
        <time>2018-05-01T10:40:17Z</time>
      </trkpt>
      <trkpt lat="47.24534" lon="6.08855">
        <ele>618</ele>
        <time>2018-05-01T10:40:21Z</time>
      </trkpt>
      <trkpt lat="47.24529" lon="6.08851">
        <ele>618</ele>
        <time>2018-05-01T10:40:23Z</time>
      </trkpt>
      <trkpt lat="47.24521" lon="6.08841">
        <ele>618</ele>
        <time>2018-05-01T10:40:28Z</time>
      </trkpt>
      <trkpt lat="47.2451" lon="6.08829">
        <ele>618</ele>
        <time>2018-05-01T10:40:33Z</time>
      </trkpt>
      <trkpt lat="47.24499" lon="6.08817">
        <ele>618</ele>
        <time>2018-05-01T10:40:36Z</time>
      </trkpt>
      <trkpt lat="47.24485" lon="6.08802">
        <ele>618</ele>
        <time>2018-05-01T10:40:42Z</time>
      </trkpt>
      <trkpt lat="47.2447" lon="6.08785">
        <ele>618</ele>
        <time>2018-05-01T10:40:47Z</time>
      </trkpt>
      <trkpt lat="47.24465" lon="6.08778">
        <ele>618</ele>
        <time>2018-05-01T10:40:50Z</time>
      </trkpt>
      <trkpt lat="47.24461" lon="6.08781">
        <ele>618</ele>
        <time>2018-05-01T10:40:54Z</time>
      </trkpt>
      <trkpt lat="47.24461" lon="6.08785">
        <ele>618</ele>
        <time>2018-05-01T10:40:56Z</time>
      </trkpt>
      <trkpt lat="47.24459" lon="6.088">
        <ele>618</ele>
        <time>2018-05-01T10:40:59Z</time>
      </trkpt>
      <trkpt lat="47.24447" lon="6.08793">
        <ele>618</ele>
        <time>2018-05-01T10:41:03Z</time>
      </trkpt>
      <trkpt lat="47.24446" lon="6.0879">
        <ele>618</ele>
        <time>2018-05-01T10:41:04Z</time>
      </trkpt>
      <trkpt lat="47.2444" lon="6.08778">
        <ele>618</ele>
        <time>2018-05-01T10:41:09Z</time>
      </trkpt>
      <trkpt lat="47.24433" lon="6.08765">
        <ele>618</ele>
        <time>2018-05-01T10:41:13Z</time>
      </trkpt>
      <trkpt lat="47.24419" lon="6.08746">
        <ele>618</ele>
        <time>2018-05-01T10:41:19Z</time>
      </trkpt>
      <trkpt lat="47.24419" lon="6.08745">
        <ele>617</ele>
        <time>2018-05-01T10:41:19Z</time>
      </trkpt>
      <trkpt lat="47.24409" lon="6.08732">
        <ele>617</ele>
        <time>2018-05-01T10:41:24Z</time>
      </trkpt>
      <trkpt lat="47.24395" lon="6.08719">
        <ele>617</ele>
        <time>2018-05-01T10:41:29Z</time>
      </trkpt>
      <trkpt lat="47.2438" lon="6.08704">
        <ele>616</ele>
        <time>2018-05-01T10:41:34Z</time>
      </trkpt>
      <trkpt lat="47.24367" lon="6.08697">
        <ele>615</ele>
        <time>2018-05-01T10:41:39Z</time>
      </trkpt>
      <trkpt lat="47.24351" lon="6.0869">
        <ele>615</ele>
        <time>2018-05-01T10:41:44Z</time>
      </trkpt>
      <trkpt lat="47.24342" lon="6.08686">
        <ele>614</ele>
        <time>2018-05-01T10:41:48Z</time>
      </trkpt>
      <trkpt lat="47.24328" lon="6.08686">
        <ele>613</ele>
        <time>2018-05-01T10:41:54Z</time>
      </trkpt>
      <trkpt lat="47.24314" lon="6.08684">
        <ele>613</ele>
        <time>2018-05-01T10:41:58Z</time>
      </trkpt>
      <trkpt lat="47.24301" lon="6.0868">
        <ele>612</ele>
        <time>2018-05-01T10:42:02Z</time>
      </trkpt>
      <trkpt lat="47.24282" lon="6.08676">
        <ele>611</ele>
        <time>2018-05-01T10:42:06Z</time>
      </trkpt>
      <trkpt lat="47.24265" lon="6.08672">
        <ele>610</ele>
        <time>2018-05-01T10:42:12Z</time>
      </trkpt>
      <trkpt lat="47.24257" lon="6.08672">
        <ele>609</ele>
        <time>2018-05-01T10:42:14Z</time>
      </trkpt>
      <trkpt lat="47.24245" lon="6.08666">
        <ele>608</ele>
        <time>2018-05-01T10:42:18Z</time>
      </trkpt>
      <trkpt lat="47.24247" lon="6.08654">
        <ele>606</ele>
        <time>2018-05-01T10:42:23Z</time>
      </trkpt>
      <trkpt lat="47.24249" lon="6.08641">
        <ele>605</ele>
        <time>2018-05-01T10:42:28Z</time>
      </trkpt>
      <trkpt lat="47.24246" lon="6.08629">
        <ele>604</ele>
        <time>2018-05-01T10:42:32Z</time>
      </trkpt>
      <trkpt lat="47.24242" lon="6.08624">
        <ele>603</ele>
        <time>2018-05-01T10:42:33Z</time>
      </trkpt>
      <trkpt lat="47.2423" lon="6.08611">
        <ele>602</ele>
        <time>2018-05-01T10:42:38Z</time>
      </trkpt>
      <trkpt lat="47.2423" lon="6.08609">
        <ele>602</ele>
        <time>2018-05-01T10:42:39Z</time>
      </trkpt>
      <trkpt lat="47.24228" lon="6.08603">
        <ele>602</ele>
        <time>2018-05-01T10:42:42Z</time>
      </trkpt>
      <trkpt lat="47.24219" lon="6.08595">
        <ele>601</ele>
        <time>2018-05-01T10:42:47Z</time>
      </trkpt>
      <trkpt lat="47.24216" lon="6.08593">
        <ele>601</ele>
        <time>2018-05-01T10:42:48Z</time>
      </trkpt>
      <trkpt lat="47.2421" lon="6.0859">
        <ele>600</ele>
        <time>2018-05-01T10:42:53Z</time>
      </trkpt>
      <trkpt lat="47.24202" lon="6.08582">
        <ele>600</ele>
        <time>2018-05-01T10:42:59Z</time>
      </trkpt>
      <trkpt lat="47.242" lon="6.08582">
        <ele>600</ele>
        <time>2018-05-01T10:43:00Z</time>
      </trkpt>
      <trkpt lat="47.24191" lon="6.08575">
        <ele>599</ele>
        <time>2018-05-01T10:43:05Z</time>
      </trkpt>
      <trkpt lat="47.24188" lon="6.08574">
        <ele>599</ele>
        <time>2018-05-01T10:43:06Z</time>
      </trkpt>
      <trkpt lat="47.24158" lon="6.08561">
        <ele>599</ele>
        <time>2018-05-01T10:43:17Z</time>
      </trkpt>
      <trkpt lat="47.24143" lon="6.08551">
        <ele>599</ele>
        <time>2018-05-01T10:43:24Z</time>
      </trkpt>
      <trkpt lat="47.24133" lon="6.08548">
        <ele>599</ele>
        <time>2018-05-01T10:43:28Z</time>
      </trkpt>
      <trkpt lat="47.24125" lon="6.08542">
        <ele>599</ele>
        <time>2018-05-01T10:43:32Z</time>
      </trkpt>
      <trkpt lat="47.24117" lon="6.08539">
        <ele>599</ele>
        <time>2018-05-01T10:43:36Z</time>
      </trkpt>
      <trkpt lat="47.24107" lon="6.08524">
        <ele>599</ele>
        <time>2018-05-01T10:43:41Z</time>
      </trkpt>
      <trkpt lat="47.24105" lon="6.08522">
        <ele>599</ele>
        <time>2018-05-01T10:43:42Z</time>
      </trkpt>
      <trkpt lat="47.24097" lon="6.08514">
        <ele>599</ele>
        <time>2018-05-01T10:43:45Z</time>
      </trkpt>
      <trkpt lat="47.2409" lon="6.08492">
        <ele>599</ele>
        <time>2018-05-01T10:43:51Z</time>
      </trkpt>
      <trkpt lat="47.24086" lon="6.08485">
        <ele>599</ele>
        <time>2018-05-01T10:43:54Z</time>
      </trkpt>
      <trkpt lat="47.2408" lon="6.08473">
        <ele>598</ele>
        <time>2018-05-01T10:43:58Z</time>
      </trkpt>
      <trkpt lat="47.24074" lon="6.08465">
        <ele>598</ele>
        <time>2018-05-01T10:44:02Z</time>
      </trkpt>
      <trkpt lat="47.24067" lon="6.08456">
        <ele>598</ele>
        <time>2018-05-01T10:44:07Z</time>
      </trkpt>
      <trkpt lat="47.24059" lon="6.08444">
        <ele>597</ele>
        <time>2018-05-01T10:44:11Z</time>
      </trkpt>
      <trkpt lat="47.2406" lon="6.08438">
        <ele>597</ele>
        <time>2018-05-01T10:44:14Z</time>
      </trkpt>
      <trkpt lat="47.24062" lon="6.08436">
        <ele>597</ele>
        <time>2018-05-01T10:44:14Z</time>
      </trkpt>
      <trkpt lat="47.24069" lon="6.08424">
        <ele>597</ele>
        <time>2018-05-01T10:44:20Z</time>
      </trkpt>
      <trkpt lat="47.24072" lon="6.08422">
        <ele>597</ele>
        <time>2018-05-01T10:44:23Z</time>
      </trkpt>
      <trkpt lat="47.24072" lon="6.0841">
        <ele>597</ele>
        <time>2018-05-01T10:44:27Z</time>
      </trkpt>
      <trkpt lat="47.24073" lon="6.08408">
        <ele>597</ele>
        <time>2018-05-01T10:44:28Z</time>
      </trkpt>
      <trkpt lat="47.24075" lon="6.08405">
        <ele>596</ele>
        <time>2018-05-01T10:44:31Z</time>
      </trkpt>
      <trkpt lat="47.24082" lon="6.08402">
        <ele>596</ele>
        <time>2018-05-01T10:44:36Z</time>
      </trkpt>
      <trkpt lat="47.24085" lon="6.08402">
        <ele>596</ele>
        <time>2018-05-01T10:44:38Z</time>
      </trkpt>
      <trkpt lat="47.24092" lon="6.08402">
        <ele>596</ele>
        <time>2018-05-01T10:44:42Z</time>
      </trkpt>
      <trkpt lat="47.24097" lon="6.08406">
        <ele>595</ele>
        <time>2018-05-01T10:44:44Z</time>
      </trkpt>
      <trkpt lat="47.2411" lon="6.08422">
        <ele>595</ele>
        <time>2018-05-01T10:44:52Z</time>
      </trkpt>
      <trkpt lat="47.24115" lon="6.08423">
        <ele>595</ele>
        <time>2018-05-01T10:44:54Z</time>
      </trkpt>
      <trkpt lat="47.24124" lon="6.08417">
        <ele>595</ele>
        <time>2018-05-01T10:44:59Z</time>
      </trkpt>
      <trkpt lat="47.24125" lon="6.08415">
        <ele>595</ele>
        <time>2018-05-01T10:45:01Z</time>
      </trkpt>
      <trkpt lat="47.24125" lon="6.08408">
        <ele>595</ele>
        <time>2018-05-01T10:45:03Z</time>
      </trkpt>
      <trkpt lat="47.24122" lon="6.08391">
        <ele>595</ele>
        <time>2018-05-01T10:45:08Z</time>
      </trkpt>
      <trkpt lat="47.24116" lon="6.08358">
        <ele>595</ele>
        <time>2018-05-01T10:45:19Z</time>
      </trkpt>
      <trkpt lat="47.24114" lon="6.08338">
        <ele>595</ele>
        <time>2018-05-01T10:45:24Z</time>
      </trkpt>
      <trkpt lat="47.24113" lon="6.08321">
        <ele>595</ele>
        <time>2018-05-01T10:45:29Z</time>
      </trkpt>
      <trkpt lat="47.24113" lon="6.08309">
        <ele>595</ele>
        <time>2018-05-01T10:45:33Z</time>
      </trkpt>
      <trkpt lat="47.24123" lon="6.08305">
        <ele>596</ele>
        <time>2018-05-01T10:45:38Z</time>
      </trkpt>
      <trkpt lat="47.24124" lon="6.08309">
        <ele>596</ele>
        <time>2018-05-01T10:45:39Z</time>
      </trkpt>
      <trkpt lat="47.24128" lon="6.08328">
        <ele>597</ele>
        <time>2018-05-01T10:45:44Z</time>
      </trkpt>
      <trkpt lat="47.24135" lon="6.08346">
        <ele>598</ele>
        <time>2018-05-01T10:45:49Z</time>
      </trkpt>
      <trkpt lat="47.24146" lon="6.08366">
        <ele>599</ele>
        <time>2018-05-01T10:45:56Z</time>
      </trkpt>
      <trkpt lat="47.24155" lon="6.08392">
        <ele>601</ele>
        <time>2018-05-01T10:46:03Z</time>
      </trkpt>
      <trkpt lat="47.2416" lon="6.08415">
        <ele>601</ele>
        <time>2018-05-01T10:46:08Z</time>
      </trkpt>
      <trkpt lat="47.24163" lon="6.08427">
        <ele>602</ele>
        <time>2018-05-01T10:46:12Z</time>
      </trkpt>
      <trkpt lat="47.24176" lon="6.08438">
        <ele>603</ele>
        <time>2018-05-01T10:46:18Z</time>
      </trkpt>
      <trkpt lat="47.24184" lon="6.08448">
        <ele>603</ele>
        <time>2018-05-01T10:46:23Z</time>
      </trkpt>
      <trkpt lat="47.24195" lon="6.08458">
        <ele>603</ele>
        <time>2018-05-01T10:46:29Z</time>
      </trkpt>
      <trkpt lat="47.24197" lon="6.0846">
        <ele>603</ele>
        <time>2018-05-01T10:46:29Z</time>
      </trkpt>
      <trkpt lat="47.24205" lon="6.08467">
        <ele>604</ele>
        <time>2018-05-01T10:46:34Z</time>
      </trkpt>
      <trkpt lat="47.24214" lon="6.0847">
        <ele>604</ele>
        <time>2018-05-01T10:46:38Z</time>
      </trkpt>
      <trkpt lat="47.24221" lon="6.08469">
        <ele>605</ele>
        <time>2018-05-01T10:46:42Z</time>
      </trkpt>
      <trkpt lat="47.24229" lon="6.08466">
        <ele>605</ele>
        <time>2018-05-01T10:46:46Z</time>
      </trkpt>
      <trkpt lat="47.24232" lon="6.08465">
        <ele>605</ele>
        <time>2018-05-01T10:46:47Z</time>
      </trkpt>
      <trkpt lat="47.24236" lon="6.08464">
        <ele>605</ele>
        <time>2018-05-01T10:46:48Z</time>
      </trkpt>
      <trkpt lat="47.24243" lon="6.08466">
        <ele>606</ele>
        <time>2018-05-01T10:46:52Z</time>
      </trkpt>
      <trkpt lat="47.24252" lon="6.0847">
        <ele>607</ele>
        <time>2018-05-01T10:46:57Z</time>
      </trkpt>
      <trkpt lat="47.24254" lon="6.0847">
        <ele>607</ele>
        <time>2018-05-01T10:46:58Z</time>
      </trkpt>
      <trkpt lat="47.24256" lon="6.08469">
        <ele>607</ele>
        <time>2018-05-01T10:46:59Z</time>
      </trkpt>
      <trkpt lat="47.24262" lon="6.08471">
        <ele>607</ele>
        <time>2018-05-01T10:47:02Z</time>
      </trkpt>
      <trkpt lat="47.24271" lon="6.08474">
        <ele>608</ele>
        <time>2018-05-01T10:47:06Z</time>
      </trkpt>
      <trkpt lat="47.24279" lon="6.08475">
        <ele>609</ele>
        <time>2018-05-01T10:47:09Z</time>
      </trkpt>
      <trkpt lat="47.24281" lon="6.08474">
        <ele>609</ele>
        <time>2018-05-01T10:47:11Z</time>
      </trkpt>
      <trkpt lat="47.24292" lon="6.08472">
        <ele>609</ele>
        <time>2018-05-01T10:47:16Z</time>
      </trkpt>
      <trkpt lat="47.24306" lon="6.08458">
        <ele>610</ele>
        <time>2018-05-01T10:47:22Z</time>
      </trkpt>
      <trkpt lat="47.2431" lon="6.08453">
        <ele>610</ele>
        <time>2018-05-01T10:47:24Z</time>
      </trkpt>
      <trkpt lat="47.24323" lon="6.08437">
        <ele>610</ele>
        <time>2018-05-01T10:47:32Z</time>
      </trkpt>
      <trkpt lat="47.24324" lon="6.08434">
        <ele>610</ele>
        <time>2018-05-01T10:47:33Z</time>
      </trkpt>
      <trkpt lat="47.24324" lon="6.08433">
        <ele>610</ele>
        <time>2018-05-01T10:47:34Z</time>
      </trkpt>
      <trkpt lat="47.24332" lon="6.08431">
        <ele>610</ele>
        <time>2018-05-01T10:47:39Z</time>
      </trkpt>
      <trkpt lat="47.24338" lon="6.08433">
        <ele>610</ele>
        <time>2018-05-01T10:47:42Z</time>
      </trkpt>
      <trkpt lat="47.2435" lon="6.08439">
        <ele>610</ele>
        <time>2018-05-01T10:47:47Z</time>
      </trkpt>
      <trkpt lat="47.24352" lon="6.0844">
        <ele>610</ele>
        <time>2018-05-01T10:47:48Z</time>
      </trkpt>
      <trkpt lat="47.24361" lon="6.0844">
        <ele>610</ele>
        <time>2018-05-01T10:47:51Z</time>
      </trkpt>
      <trkpt lat="47.24373" lon="6.08445">
        <ele>609</ele>
        <time>2018-05-01T10:47:54Z</time>
      </trkpt>
      <trkpt lat="47.24376" lon="6.08457">
        <ele>609</ele>
        <time>2018-05-01T10:47:59Z</time>
      </trkpt>
      <trkpt lat="47.24383" lon="6.0846">
        <ele>609</ele>
        <time>2018-05-01T10:48:02Z</time>
      </trkpt>
      <trkpt lat="47.24391" lon="6.08454">
        <ele>608</ele>
        <time>2018-05-01T10:48:06Z</time>
      </trkpt>
      <trkpt lat="47.24392" lon="6.08453">
        <ele>608</ele>
        <time>2018-05-01T10:48:06Z</time>
      </trkpt>
      <trkpt lat="47.24395" lon="6.08452">
        <ele>608</ele>
        <time>2018-05-01T10:48:08Z</time>
      </trkpt>
      <trkpt lat="47.24403" lon="6.08456">
        <ele>607</ele>
        <time>2018-05-01T10:48:11Z</time>
      </trkpt>
      <trkpt lat="47.24406" lon="6.08457">
        <ele>607</ele>
        <time>2018-05-01T10:48:12Z</time>
      </trkpt>
      <trkpt lat="47.2441" lon="6.0846">
        <ele>607</ele>
        <time>2018-05-01T10:48:13Z</time>
      </trkpt>
      <trkpt lat="47.24422" lon="6.08476">
        <ele>606</ele>
        <time>2018-05-01T10:48:19Z</time>
      </trkpt>
      <trkpt lat="47.24442" lon="6.08497">
        <ele>606</ele>
        <time>2018-05-01T10:48:28Z</time>
      </trkpt>
      <trkpt lat="47.24456" lon="6.08507">
        <ele>606</ele>
        <time>2018-05-01T10:48:33Z</time>
      </trkpt>
      <trkpt lat="47.24467" lon="6.08521">
        <ele>606</ele>
        <time>2018-05-01T10:48:38Z</time>
      </trkpt>
      <trkpt lat="47.24471" lon="6.08528">
        <ele>606</ele>
        <time>2018-05-01T10:48:41Z</time>
      </trkpt>
      <trkpt lat="47.24478" lon="6.08539">
        <ele>606</ele>
        <time>2018-05-01T10:48:45Z</time>
      </trkpt>
      <trkpt lat="47.24486" lon="6.08546">
        <ele>606</ele>
        <time>2018-05-01T10:48:50Z</time>
      </trkpt>
      <trkpt lat="47.24486" lon="6.08539">
        <ele>606</ele>
        <time>2018-05-01T10:48:53Z</time>
      </trkpt>
      <trkpt lat="47.24477" lon="6.08528">
        <ele>607</ele>
        <time>2018-05-01T10:48:58Z</time>
      </trkpt>
      <trkpt lat="47.24467" lon="6.08514">
        <ele>607</ele>
        <time>2018-05-01T10:49:03Z</time>
      </trkpt>
      <trkpt lat="47.2446" lon="6.08505">
        <ele>607</ele>
        <time>2018-05-01T10:49:07Z</time>
      </trkpt>
      <trkpt lat="47.24449" lon="6.08489">
        <ele>608</ele>
        <time>2018-05-01T10:49:12Z</time>
      </trkpt>
      <trkpt lat="47.24444" lon="6.08482">
        <ele>608</ele>
        <time>2018-05-01T10:49:14Z</time>
      </trkpt>
      <trkpt lat="47.24427" lon="6.08462">
        <ele>608</ele>
        <time>2018-05-01T10:49:20Z</time>
      </trkpt>
      <trkpt lat="47.24417" lon="6.08452">
        <ele>608</ele>
        <time>2018-05-01T10:49:24Z</time>
      </trkpt>
      <trkpt lat="47.24408" lon="6.08443">
        <ele>607</ele>
        <time>2018-05-01T10:49:29Z</time>
      </trkpt>
      <trkpt lat="47.24393" lon="6.08433">
        <ele>607</ele>
        <time>2018-05-01T10:49:33Z</time>
      </trkpt>
      <trkpt lat="47.2438" lon="6.08422">
        <ele>605</ele>
        <time>2018-05-01T10:49:38Z</time>
      </trkpt>
      <trkpt lat="47.24376" lon="6.08421">
        <ele>605</ele>
        <time>2018-05-01T10:49:39Z</time>
      </trkpt>
      <trkpt lat="47.24364" lon="6.08408">
        <ele>604</ele>
        <time>2018-05-01T10:49:43Z</time>
      </trkpt>
      <trkpt lat="47.24361" lon="6.08405">
        <ele>604</ele>
        <time>2018-05-01T10:49:44Z</time>
      </trkpt>
      <trkpt lat="47.24348" lon="6.08392">
        <ele>603</ele>
        <time>2018-05-01T10:49:49Z</time>
      </trkpt>
      <trkpt lat="47.24334" lon="6.08383">
        <ele>602</ele>
        <time>2018-05-01T10:49:53Z</time>
      </trkpt>
      <trkpt lat="47.24321" lon="6.08372">
        <ele>601</ele>
        <time>2018-05-01T10:49:58Z</time>
      </trkpt>
      <trkpt lat="47.24305" lon="6.08357">
        <ele>600</ele>
        <time>2018-05-01T10:50:03Z</time>
      </trkpt>
      <trkpt lat="47.2429" lon="6.08344">
        <ele>600</ele>
        <time>2018-05-01T10:50:08Z</time>
      </trkpt>
      <trkpt lat="47.2428" lon="6.08335">
        <ele>599</ele>
        <time>2018-05-01T10:50:12Z</time>
      </trkpt>
      <trkpt lat="47.24266" lon="6.08324">
        <ele>598</ele>
        <time>2018-05-01T10:50:17Z</time>
      </trkpt>
      <trkpt lat="47.24231" lon="6.08294">
        <ele>597</ele>
        <time>2018-05-01T10:50:28Z</time>
      </trkpt>
      <trkpt lat="47.24222" lon="6.08286">
        <ele>596</ele>
        <time>2018-05-01T10:50:31Z</time>
      </trkpt>
      <trkpt lat="47.24216" lon="6.08279">
        <ele>596</ele>
        <time>2018-05-01T10:50:33Z</time>
      </trkpt>
      <trkpt lat="47.24206" lon="6.08264">
        <ele>595</ele>
        <time>2018-05-01T10:50:39Z</time>
      </trkpt>
      <trkpt lat="47.24203" lon="6.08262">
        <ele>595</ele>
        <time>2018-05-01T10:50:40Z</time>
      </trkpt>
      <trkpt lat="47.24194" lon="6.08255">
        <ele>594</ele>
        <time>2018-05-01T10:50:43Z</time>
      </trkpt>
      <trkpt lat="47.24185" lon="6.08245">
        <ele>593</ele>
        <time>2018-05-01T10:50:46Z</time>
      </trkpt>
      <trkpt lat="47.2417" lon="6.08226">
        <ele>592</ele>
        <time>2018-05-01T10:50:51Z</time>
      </trkpt>
      <trkpt lat="47.24162" lon="6.08215">
        <ele>592</ele>
        <time>2018-05-01T10:50:53Z</time>
      </trkpt>
      <trkpt lat="47.24153" lon="6.08207">
        <ele>591</ele>
        <time>2018-05-01T10:50:56Z</time>
      </trkpt>
      <trkpt lat="47.24139" lon="6.08196">
        <ele>589</ele>
        <time>2018-05-01T10:51:01Z</time>
      </trkpt>
      <trkpt lat="47.24127" lon="6.08187">
        <ele>588</ele>
        <time>2018-05-01T10:51:05Z</time>
      </trkpt>
      <trkpt lat="47.24124" lon="6.08184">
        <ele>588</ele>
        <time>2018-05-01T10:51:06Z</time>
      </trkpt>
      <trkpt lat="47.24114" lon="6.0817">
        <ele>587</ele>
        <time>2018-05-01T10:51:09Z</time>
      </trkpt>
      <trkpt lat="47.2411" lon="6.08161">
        <ele>587</ele>
        <time>2018-05-01T10:51:12Z</time>
      </trkpt>
      <trkpt lat="47.24092" lon="6.08139">
        <ele>585</ele>
        <time>2018-05-01T10:51:17Z</time>
      </trkpt>
      <trkpt lat="47.24076" lon="6.08123">
        <ele>584</ele>
        <time>2018-05-01T10:51:23Z</time>
      </trkpt>
      <trkpt lat="47.24067" lon="6.08109">
        <ele>583</ele>
        <time>2018-05-01T10:51:28Z</time>
      </trkpt>
      <trkpt lat="47.24064" lon="6.08106">
        <ele>582</ele>
        <time>2018-05-01T10:51:29Z</time>
      </trkpt>
      <trkpt lat="47.24054" lon="6.08096">
        <ele>581</ele>
        <time>2018-05-01T10:51:32Z</time>
      </trkpt>
      <trkpt lat="47.2404" lon="6.08079">
        <ele>580</ele>
        <time>2018-05-01T10:51:37Z</time>
      </trkpt>
      <trkpt lat="47.24022" lon="6.08063">
        <ele>578</ele>
        <time>2018-05-01T10:51:42Z</time>
      </trkpt>
      <trkpt lat="47.24012" lon="6.0805">
        <ele>577</ele>
        <time>2018-05-01T10:51:46Z</time>
      </trkpt>
      <trkpt lat="47.23996" lon="6.08032">
        <ele>575</ele>
        <time>2018-05-01T10:51:51Z</time>
      </trkpt>
      <trkpt lat="47.23979" lon="6.08011">
        <ele>573</ele>
        <time>2018-05-01T10:51:56Z</time>
      </trkpt>
      <trkpt lat="47.23977" lon="6.0801">
        <ele>573</ele>
        <time>2018-05-01T10:51:57Z</time>
      </trkpt>
      <trkpt lat="47.23962" lon="6.07988">
        <ele>570</ele>
        <time>2018-05-01T10:52:04Z</time>
      </trkpt>
      <trkpt lat="47.2396" lon="6.07987">
        <ele>570</ele>
        <time>2018-05-01T10:52:05Z</time>
      </trkpt>
      <trkpt lat="47.23947" lon="6.07976">
        <ele>569</ele>
        <time>2018-05-01T10:52:09Z</time>
      </trkpt>
      <trkpt lat="47.23932" lon="6.07962">
        <ele>568</ele>
        <time>2018-05-01T10:52:14Z</time>
      </trkpt>
      <trkpt lat="47.2392" lon="6.07949">
        <ele>567</ele>
        <time>2018-05-01T10:52:18Z</time>
      </trkpt>
      <trkpt lat="47.23908" lon="6.07938">
        <ele>565</ele>
        <time>2018-05-01T10:52:22Z</time>
      </trkpt>
      <trkpt lat="47.23892" lon="6.07923">
        <ele>564</ele>
        <time>2018-05-01T10:52:27Z</time>
      </trkpt>
      <trkpt lat="47.2388" lon="6.07913">
        <ele>563</ele>
        <time>2018-05-01T10:52:31Z</time>
      </trkpt>
      <trkpt lat="47.23864" lon="6.07899">
        <ele>561</ele>
        <time>2018-05-01T10:52:36Z</time>
      </trkpt>
      <trkpt lat="47.23852" lon="6.0789">
        <ele>560</ele>
        <time>2018-05-01T10:52:40Z</time>
      </trkpt>
      <trkpt lat="47.23836" lon="6.07883">
        <ele>559</ele>
        <time>2018-05-01T10:52:45Z</time>
      </trkpt>
      <trkpt lat="47.23819" lon="6.07881">
        <ele>557</ele>
        <time>2018-05-01T10:52:50Z</time>
      </trkpt>
      <trkpt lat="47.23798" lon="6.07882">
        <ele>556</ele>
        <time>2018-05-01T10:52:56Z</time>
      </trkpt>
      <trkpt lat="47.23782" lon="6.07883">
        <ele>554</ele>
        <time>2018-05-01T10:53:01Z</time>
      </trkpt>
      <trkpt lat="47.23762" lon="6.07888">
        <ele>553</ele>
        <time>2018-05-01T10:53:07Z</time>
      </trkpt>
      <trkpt lat="47.2374" lon="6.07894">
        <ele>551</ele>
        <time>2018-05-01T10:53:13Z</time>
      </trkpt>
      <trkpt lat="47.23719" lon="6.079">
        <ele>550</ele>
        <time>2018-05-01T10:53:19Z</time>
      </trkpt>
      <trkpt lat="47.23701" lon="6.07901">
        <ele>548</ele>
        <time>2018-05-01T10:53:24Z</time>
      </trkpt>
      <trkpt lat="47.23687" lon="6.0789">
        <ele>548</ele>
        <time>2018-05-01T10:53:28Z</time>
      </trkpt>
      <trkpt lat="47.23684" lon="6.07868">
        <ele>547</ele>
        <time>2018-05-01T10:53:32Z</time>
      </trkpt>
      <trkpt lat="47.23686" lon="6.07861">
        <ele>546</ele>
        <time>2018-05-01T10:53:33Z</time>
      </trkpt>
      <trkpt lat="47.23701" lon="6.07839">
        <ele>545</ele>
        <time>2018-05-01T10:53:39Z</time>
      </trkpt>
      <trkpt lat="47.23716" lon="6.07823">
        <ele>543</ele>
        <time>2018-05-01T10:53:44Z</time>
      </trkpt>
      <trkpt lat="47.23728" lon="6.07804">
        <ele>541</ele>
        <time>2018-05-01T10:53:49Z</time>
      </trkpt>
      <trkpt lat="47.23742" lon="6.07785">
        <ele>539</ele>
        <time>2018-05-01T10:53:54Z</time>
      </trkpt>
      <trkpt lat="47.23758" lon="6.07769">
        <ele>538</ele>
        <time>2018-05-01T10:53:59Z</time>
      </trkpt>
      <trkpt lat="47.23771" lon="6.07752">
        <ele>536</ele>
        <time>2018-05-01T10:54:04Z</time>
      </trkpt>
      <trkpt lat="47.23778" lon="6.07727">
        <ele>533</ele>
        <time>2018-05-01T10:54:09Z</time>
      </trkpt>
      <trkpt lat="47.23779" lon="6.077">
        <ele>532</ele>
        <time>2018-05-01T10:54:14Z</time>
      </trkpt>
      <trkpt lat="47.23776" lon="6.07678">
        <ele>530</ele>
        <time>2018-05-01T10:54:18Z</time>
      </trkpt>
      <trkpt lat="47.2376" lon="6.07665">
        <ele>528</ele>
        <time>2018-05-01T10:54:23Z</time>
      </trkpt>
      <trkpt lat="47.23738" lon="6.07659">
        <ele>526</ele>
        <time>2018-05-01T10:54:29Z</time>
      </trkpt>
      <trkpt lat="47.23722" lon="6.07655">
        <ele>525</ele>
        <time>2018-05-01T10:54:33Z</time>
      </trkpt>
      <trkpt lat="47.23706" lon="6.07654">
        <ele>523</ele>
        <time>2018-05-01T10:54:38Z</time>
      </trkpt>
      <trkpt lat="47.23688" lon="6.07658">
        <ele>522</ele>
        <time>2018-05-01T10:54:43Z</time>
      </trkpt>
      <trkpt lat="47.23672" lon="6.07673">
        <ele>521</ele>
        <time>2018-05-01T10:54:48Z</time>
      </trkpt>
      <trkpt lat="47.23658" lon="6.07697">
        <ele>520</ele>
        <time>2018-05-01T10:54:53Z</time>
      </trkpt>
      <trkpt lat="47.23645" lon="6.07721">
        <ele>519</ele>
        <time>2018-05-01T10:54:59Z</time>
      </trkpt>
      <trkpt lat="47.23633" lon="6.07741">
        <ele>519</ele>
        <time>2018-05-01T10:55:04Z</time>
      </trkpt>
      <trkpt lat="47.23623" lon="6.07755">
        <ele>519</ele>
        <time>2018-05-01T10:55:08Z</time>
      </trkpt>
      <trkpt lat="47.23611" lon="6.07765">
        <ele>518</ele>
        <time>2018-05-01T10:55:12Z</time>
      </trkpt>
      <trkpt lat="47.23608" lon="6.07758">
        <ele>518</ele>
        <time>2018-05-01T10:55:13Z</time>
      </trkpt>
      <trkpt lat="47.23616" lon="6.07725">
        <ele>517</ele>
        <time>2018-05-01T10:55:20Z</time>
      </trkpt>
      <trkpt lat="47.23616" lon="6.07714">
        <ele>517</ele>
        <time>2018-05-01T10:55:22Z</time>
      </trkpt>
      <trkpt lat="47.23605" lon="6.07718">
        <ele>516</ele>
        <time>2018-05-01T10:55:26Z</time>
      </trkpt>
      <trkpt lat="47.23602" lon="6.07721">
        <ele>516</ele>
        <time>2018-05-01T10:55:27Z</time>
      </trkpt>
      <trkpt lat="47.23586" lon="6.07734">
        <ele>514</ele>
        <time>2018-05-01T10:55:32Z</time>
      </trkpt>
      <trkpt lat="47.23569" lon="6.07749">
        <ele>513</ele>
        <time>2018-05-01T10:55:38Z</time>
      </trkpt>
      <trkpt lat="47.23553" lon="6.07758">
        <ele>512</ele>
        <time>2018-05-01T10:55:43Z</time>
      </trkpt>
      <trkpt lat="47.23536" lon="6.07761">
        <ele>511</ele>
        <time>2018-05-01T10:55:48Z</time>
      </trkpt>
      <trkpt lat="47.2353" lon="6.07758">
        <ele>511</ele>
        <time>2018-05-01T10:55:50Z</time>
      </trkpt>
    </trkseg>
  </trk>
</gpx>